<?xml version="1.0" encoding="utf-8"?>
<gpx xmlns:xsi="http://www.w3.org/2001/XMLSchema-instance" xmlns:xsd="http://www.w3.org/2001/XMLSchema" version="1.1" creator="Shapelink.com" xmlns="http://www.topografix.com/GPX/1/1" xmlns:gpxtpx="http://www.garmin.com/xmlschemas/TrackPointExtension/v1">
  <metadata>
    <name>Cykling 32.46 km, 2012-05-02</name>
    <desc></desc>
    <author><name>Alexander Engvall</name></author> 
    <time>2012-05-02T18:58:28Z</time>
  </metadata>
  <trk>
    <name>Cykling 32.46 km, 2012-05-02</name>
    <trkseg>
      <trkpt lat="59.4569935" lon="17.8055771">
        <ele>35.8</ele>
        <time>2012-05-02T18:58:28Z</time>
      </trkpt>
      <trkpt lat="59.4566653" lon="17.8053735">
        <ele>34</ele>
        <time>2012-05-02T18:58:33Z</time>
      </trkpt>
      <trkpt lat="59.4562737" lon="17.8050969">
        <ele>32.4</ele>
        <time>2012-05-02T18:58:39Z</time>
      </trkpt>
      <trkpt lat="59.4558579" lon="17.8047909">
        <ele>31.2</ele>
        <time>2012-05-02T18:58:44Z</time>
      </trkpt>
      <trkpt lat="59.4554362" lon="17.8044371">
        <ele>30.2</ele>
        <time>2012-05-02T18:58:48Z</time>
      </trkpt>
      <trkpt lat="59.4551491" lon="17.804339">
        <ele>28.8</ele>
        <time>2012-05-02T18:58:51Z</time>
      </trkpt>
      <trkpt lat="59.4547939" lon="17.8044191">
        <ele>28.2</ele>
        <time>2012-05-02T18:58:55Z</time>
      </trkpt>
      <trkpt lat="59.4544126" lon="17.8048167">
        <ele>28</ele>
        <time>2012-05-02T18:59:00Z</time>
      </trkpt>
      <trkpt lat="59.454062" lon="17.8053422">
        <ele>29</ele>
        <time>2012-05-02T18:59:06Z</time>
      </trkpt>
      <trkpt lat="59.4537365" lon="17.8058948">
        <ele>30.2</ele>
        <time>2012-05-02T18:59:10Z</time>
      </trkpt>
      <trkpt lat="59.4534603" lon="17.8063371">
        <ele>31.2</ele>
        <time>2012-05-02T18:59:15Z</time>
      </trkpt>
      <trkpt lat="59.4531901" lon="17.8068122">
        <ele>29.4</ele>
        <time>2012-05-02T18:59:22Z</time>
      </trkpt>
      <trkpt lat="59.4529033" lon="17.8073381">
        <ele>27.8</ele>
        <time>2012-05-02T18:59:26Z</time>
      </trkpt>
      <trkpt lat="59.4526053" lon="17.8079057">
        <ele>26.8</ele>
        <time>2012-05-02T18:59:31Z</time>
      </trkpt>
      <trkpt lat="59.4523059" lon="17.8084639">
        <ele>26.6</ele>
        <time>2012-05-02T18:59:36Z</time>
      </trkpt>
      <trkpt lat="59.4520311" lon="17.8090054">
        <ele>26.4</ele>
        <time>2012-05-02T18:59:41Z</time>
      </trkpt>
      <trkpt lat="59.4517717" lon="17.8095505">
        <ele>26.2</ele>
        <time>2012-05-02T18:59:46Z</time>
      </trkpt>
      <trkpt lat="59.4515231" lon="17.810087">
        <ele>25.2</ele>
        <time>2012-05-02T18:59:51Z</time>
      </trkpt>
      <trkpt lat="59.4512663" lon="17.8106391">
        <ele>27.2</ele>
        <time>2012-05-02T18:59:56Z</time>
      </trkpt>
      <trkpt lat="59.4511189" lon="17.8109868">
        <ele>28.4</ele>
        <time>2012-05-02T18:59:59Z</time>
      </trkpt>
      <trkpt lat="59.4510275" lon="17.8112399">
        <ele>31</ele>
        <time>2012-05-02T19:00:01Z</time>
      </trkpt>
      <trkpt lat="59.4507851" lon="17.8117954">
        <ele>31.4</ele>
        <time>2012-05-02T19:00:06Z</time>
      </trkpt>
      <trkpt lat="59.450553" lon="17.8123512">
        <ele>28</ele>
        <time>2012-05-02T19:00:11Z</time>
      </trkpt>
      <trkpt lat="59.4503176" lon="17.8129148">
        <ele>26.4</ele>
        <time>2012-05-02T19:00:16Z</time>
      </trkpt>
      <trkpt lat="59.4501103" lon="17.8135188">
        <ele>26.8</ele>
        <time>2012-05-02T19:00:21Z</time>
      </trkpt>
      <trkpt lat="59.4499034" lon="17.8140886">
        <ele>24.8</ele>
        <time>2012-05-02T19:00:26Z</time>
      </trkpt>
      <trkpt lat="59.4497205" lon="17.8147049">
        <ele>25</ele>
        <time>2012-05-02T19:00:31Z</time>
      </trkpt>
      <trkpt lat="59.4495219" lon="17.815283">
        <ele>24.4</ele>
        <time>2012-05-02T19:00:36Z</time>
      </trkpt>
      <trkpt lat="59.4494939" lon="17.8154156">
        <ele>25</ele>
        <time>2012-05-02T19:00:37Z</time>
      </trkpt>
      <trkpt lat="59.4492998" lon="17.8161476">
        <ele>27.2</ele>
        <time>2012-05-02T19:00:43Z</time>
      </trkpt>
      <trkpt lat="59.4491309" lon="17.8168902">
        <ele>28.2</ele>
        <time>2012-05-02T19:00:50Z</time>
      </trkpt>
      <trkpt lat="59.4489891" lon="17.8176028">
        <ele>28.4</ele>
        <time>2012-05-02T19:00:55Z</time>
      </trkpt>
      <trkpt lat="59.4488759" lon="17.8182839">
        <ele>29</ele>
        <time>2012-05-02T19:01:01Z</time>
      </trkpt>
      <trkpt lat="59.4487731" lon="17.8189853">
        <ele>30.4</ele>
        <time>2012-05-02T19:01:08Z</time>
      </trkpt>
      <trkpt lat="59.4486907" lon="17.819713">
        <ele>33</ele>
        <time>2012-05-02T19:01:13Z</time>
      </trkpt>
      <trkpt lat="59.4486181" lon="17.8204461">
        <ele>34.8</ele>
        <time>2012-05-02T19:01:19Z</time>
      </trkpt>
      <trkpt lat="59.4485554" lon="17.8211526">
        <ele>36</ele>
        <time>2012-05-02T19:01:25Z</time>
      </trkpt>
      <trkpt lat="59.4485481" lon="17.8219826">
        <ele>37</ele>
        <time>2012-05-02T19:01:31Z</time>
      </trkpt>
      <trkpt lat="59.448567" lon="17.8228419">
        <ele>37.8</ele>
        <time>2012-05-02T19:01:37Z</time>
      </trkpt>
      <trkpt lat="59.4485861" lon="17.8236402">
        <ele>38.2</ele>
        <time>2012-05-02T19:01:43Z</time>
      </trkpt>
      <trkpt lat="59.4485928" lon="17.8239138">
        <ele>38.8</ele>
        <time>2012-05-02T19:01:45Z</time>
      </trkpt>
      <trkpt lat="59.448444" lon="17.8243323">
        <ele>39</ele>
        <time>2012-05-02T19:01:49Z</time>
      </trkpt>
      <trkpt lat="59.448302" lon="17.8244373">
        <ele>37</ele>
        <time>2012-05-02T19:01:51Z</time>
      </trkpt>
      <trkpt lat="59.4480742" lon="17.8246114">
        <ele>35.4</ele>
        <time>2012-05-02T19:01:54Z</time>
      </trkpt>
      <trkpt lat="59.4476859" lon="17.824899">
        <ele>34.2</ele>
        <time>2012-05-02T19:01:59Z</time>
      </trkpt>
      <trkpt lat="59.4473009" lon="17.8251545">
        <ele>33.6</ele>
        <time>2012-05-02T19:02:04Z</time>
      </trkpt>
      <trkpt lat="59.4470013" lon="17.8253191">
        <ele>33.6</ele>
        <time>2012-05-02T19:02:08Z</time>
      </trkpt>
      <trkpt lat="59.4469239" lon="17.8253521">
        <ele>33.8</ele>
        <time>2012-05-02T19:02:09Z</time>
      </trkpt>
      <trkpt lat="59.4465384" lon="17.8254792">
        <ele>35.2</ele>
        <time>2012-05-02T19:02:14Z</time>
      </trkpt>
      <trkpt lat="59.4461619" lon="17.8255548">
        <ele>37.4</ele>
        <time>2012-05-02T19:02:20Z</time>
      </trkpt>
      <trkpt lat="59.4457808" lon="17.8255365">
        <ele>38.2</ele>
        <time>2012-05-02T19:02:24Z</time>
      </trkpt>
      <trkpt lat="59.4453892" lon="17.8254469">
        <ele>38.2</ele>
        <time>2012-05-02T19:02:29Z</time>
      </trkpt>
      <trkpt lat="59.4450097" lon="17.8253258">
        <ele>37.8</ele>
        <time>2012-05-02T19:02:34Z</time>
      </trkpt>
      <trkpt lat="59.4446196" lon="17.8252222">
        <ele>37</ele>
        <time>2012-05-02T19:02:39Z</time>
      </trkpt>
      <trkpt lat="59.4442061" lon="17.8251202">
        <ele>37.6</ele>
        <time>2012-05-02T19:02:45Z</time>
      </trkpt>
      <trkpt lat="59.4438202" lon="17.8250964">
        <ele>40</ele>
        <time>2012-05-02T19:02:49Z</time>
      </trkpt>
      <trkpt lat="59.4433973" lon="17.8250809">
        <ele>39.8</ele>
        <time>2012-05-02T19:02:54Z</time>
      </trkpt>
      <trkpt lat="59.4429649" lon="17.8251408">
        <ele>40.2</ele>
        <time>2012-05-02T19:03:00Z</time>
      </trkpt>
      <trkpt lat="59.4425384" lon="17.8252409">
        <ele>39.6</ele>
        <time>2012-05-02T19:03:04Z</time>
      </trkpt>
      <trkpt lat="59.4421112" lon="17.8254166">
        <ele>39.2</ele>
        <time>2012-05-02T19:03:09Z</time>
      </trkpt>
      <trkpt lat="59.4416889" lon="17.8256295">
        <ele>38.4</ele>
        <time>2012-05-02T19:03:14Z</time>
      </trkpt>
      <trkpt lat="59.4412811" lon="17.8258978">
        <ele>37.8</ele>
        <time>2012-05-02T19:03:20Z</time>
      </trkpt>
      <trkpt lat="59.4408729" lon="17.8261346">
        <ele>38.2</ele>
        <time>2012-05-02T19:03:24Z</time>
      </trkpt>
      <trkpt lat="59.440471" lon="17.8263471">
        <ele>38.2</ele>
        <time>2012-05-02T19:03:30Z</time>
      </trkpt>
      <trkpt lat="59.4400709" lon="17.8265075">
        <ele>38.2</ele>
        <time>2012-05-02T19:03:34Z</time>
      </trkpt>
      <trkpt lat="59.4396595" lon="17.8265742">
        <ele>38</ele>
        <time>2012-05-02T19:03:39Z</time>
      </trkpt>
      <trkpt lat="59.4392344" lon="17.8265277">
        <ele>38.2</ele>
        <time>2012-05-02T19:03:45Z</time>
      </trkpt>
      <trkpt lat="59.4388257" lon="17.8263764">
        <ele>37.6</ele>
        <time>2012-05-02T19:03:49Z</time>
      </trkpt>
      <trkpt lat="59.4387476" lon="17.826365">
        <ele>37.4</ele>
        <time>2012-05-02T19:03:50Z</time>
      </trkpt>
      <trkpt lat="59.4385134" lon="17.8266633">
        <ele>35.6</ele>
        <time>2012-05-02T19:03:54Z</time>
      </trkpt>
      <trkpt lat="59.4384539" lon="17.8269284">
        <ele>35.8</ele>
        <time>2012-05-02T19:03:56Z</time>
      </trkpt>
      <trkpt lat="59.4383704" lon="17.8274528">
        <ele>37.8</ele>
        <time>2012-05-02T19:04:01Z</time>
      </trkpt>
      <trkpt lat="59.4382874" lon="17.8278362">
        <ele>38.4</ele>
        <time>2012-05-02T19:04:04Z</time>
      </trkpt>
      <trkpt lat="59.4381575" lon="17.8280638">
        <ele>39</ele>
        <time>2012-05-02T19:04:06Z</time>
      </trkpt>
      <trkpt lat="59.4379295" lon="17.8279326">
        <ele>37.4</ele>
        <time>2012-05-02T19:04:09Z</time>
      </trkpt>
      <trkpt lat="59.4377565" lon="17.827833">
        <ele>37</ele>
        <time>2012-05-02T19:04:11Z</time>
      </trkpt>
      <trkpt lat="59.437511" lon="17.8276888">
        <ele>37</ele>
        <time>2012-05-02T19:04:14Z</time>
      </trkpt>
      <trkpt lat="59.4373572" lon="17.8275673">
        <ele>36.8</ele>
        <time>2012-05-02T19:04:16Z</time>
      </trkpt>
      <trkpt lat="59.4369597" lon="17.8274117">
        <ele>36.6</ele>
        <time>2012-05-02T19:04:21Z</time>
      </trkpt>
      <trkpt lat="59.4368795" lon="17.8274145">
        <ele>36.6</ele>
        <time>2012-05-02T19:04:22Z</time>
      </trkpt>
      <trkpt lat="59.4365711" lon="17.8275945">
        <ele>35.4</ele>
        <time>2012-05-02T19:04:27Z</time>
      </trkpt>
      <trkpt lat="59.4364962" lon="17.827672">
        <ele>35.2</ele>
        <time>2012-05-02T19:04:28Z</time>
      </trkpt>
      <trkpt lat="59.4361879" lon="17.8279501">
        <ele>34.2</ele>
        <time>2012-05-02T19:04:31Z</time>
      </trkpt>
      <trkpt lat="59.4358006" lon="17.8283453">
        <ele>32.6</ele>
        <time>2012-05-02T19:04:37Z</time>
      </trkpt>
      <trkpt lat="59.43546" lon="17.8286265">
        <ele>31</ele>
        <time>2012-05-02T19:04:41Z</time>
      </trkpt>
      <trkpt lat="59.4352944" lon="17.8287034">
        <ele>30.4</ele>
        <time>2012-05-02T19:04:42Z</time>
      </trkpt>
      <trkpt lat="59.4350692" lon="17.8285668">
        <ele>29.2</ele>
        <time>2012-05-02T19:04:45Z</time>
      </trkpt>
      <trkpt lat="59.4346681" lon="17.828371">
        <ele>26.8</ele>
        <time>2012-05-02T19:04:51Z</time>
      </trkpt>
      <trkpt lat="59.4342508" lon="17.8284132">
        <ele>25.6</ele>
        <time>2012-05-02T19:04:55Z</time>
      </trkpt>
      <trkpt lat="59.4338765" lon="17.8284658">
        <ele>25.4</ele>
        <time>2012-05-02T19:04:59Z</time>
      </trkpt>
      <trkpt lat="59.4334784" lon="17.8285452">
        <ele>24.2</ele>
        <time>2012-05-02T19:05:03Z</time>
      </trkpt>
      <trkpt lat="59.4331005" lon="17.8287612">
        <ele>22.6</ele>
        <time>2012-05-02T19:05:08Z</time>
      </trkpt>
      <trkpt lat="59.4327565" lon="17.8290633">
        <ele>22.2</ele>
        <time>2012-05-02T19:05:11Z</time>
      </trkpt>
      <trkpt lat="59.4323734" lon="17.8294615">
        <ele>21.6</ele>
        <time>2012-05-02T19:05:16Z</time>
      </trkpt>
      <trkpt lat="59.432224" lon="17.8296138">
        <ele>21.6</ele>
        <time>2012-05-02T19:05:18Z</time>
      </trkpt>
      <trkpt lat="59.4319906" lon="17.8298999">
        <ele>21.4</ele>
        <time>2012-05-02T19:05:21Z</time>
      </trkpt>
      <trkpt lat="59.4316716" lon="17.8303169">
        <ele>21.2</ele>
        <time>2012-05-02T19:05:26Z</time>
      </trkpt>
      <trkpt lat="59.4313273" lon="17.8308244">
        <ele>21.4</ele>
        <time>2012-05-02T19:05:31Z</time>
      </trkpt>
      <trkpt lat="59.4309614" lon="17.8312891">
        <ele>21.6</ele>
        <time>2012-05-02T19:05:36Z</time>
      </trkpt>
      <trkpt lat="59.430896" lon="17.831359">
        <ele>21.8</ele>
        <time>2012-05-02T19:05:38Z</time>
      </trkpt>
      <trkpt lat="59.4306297" lon="17.8315573">
        <ele>22</ele>
        <time>2012-05-02T19:05:42Z</time>
      </trkpt>
      <trkpt lat="59.4303724" lon="17.8316808">
        <ele>21.8</ele>
        <time>2012-05-02T19:05:46Z</time>
      </trkpt>
      <trkpt lat="59.4302428" lon="17.8317086">
        <ele>22.2</ele>
        <time>2012-05-02T19:05:49Z</time>
      </trkpt>
      <trkpt lat="59.4301623" lon="17.831727">
        <ele>23</ele>
        <time>2012-05-02T19:05:51Z</time>
      </trkpt>
      <trkpt lat="59.4299181" lon="17.8312497">
        <ele>24.6</ele>
        <time>2012-05-02T19:05:57Z</time>
      </trkpt>
      <trkpt lat="59.429716" lon="17.8307495">
        <ele>25</ele>
        <time>2012-05-02T19:06:01Z</time>
      </trkpt>
      <trkpt lat="59.4293316" lon="17.8308165">
        <ele>25</ele>
        <time>2012-05-02T19:06:06Z</time>
      </trkpt>
      <trkpt lat="59.428998" lon="17.8310579">
        <ele>24.8</ele>
        <time>2012-05-02T19:06:10Z</time>
      </trkpt>
      <trkpt lat="59.4285799" lon="17.8313543">
        <ele>25</ele>
        <time>2012-05-02T19:06:16Z</time>
      </trkpt>
      <trkpt lat="59.4281657" lon="17.8316469">
        <ele>25.2</ele>
        <time>2012-05-02T19:06:20Z</time>
      </trkpt>
      <trkpt lat="59.4277699" lon="17.8319399">
        <ele>25.8</ele>
        <time>2012-05-02T19:06:25Z</time>
      </trkpt>
      <trkpt lat="59.4276947" lon="17.8320004">
        <ele>25.8</ele>
        <time>2012-05-02T19:06:26Z</time>
      </trkpt>
      <trkpt lat="59.4273879" lon="17.8322129">
        <ele>25.6</ele>
        <time>2012-05-02T19:06:30Z</time>
      </trkpt>
      <trkpt lat="59.4269903" lon="17.8324817">
        <ele>25.6</ele>
        <time>2012-05-02T19:06:36Z</time>
      </trkpt>
      <trkpt lat="59.4265803" lon="17.8327582">
        <ele>25.8</ele>
        <time>2012-05-02T19:06:41Z</time>
      </trkpt>
      <trkpt lat="59.4261141" lon="17.8330188">
        <ele>27</ele>
        <time>2012-05-02T19:06:46Z</time>
      </trkpt>
      <trkpt lat="59.4258117" lon="17.8330669">
        <ele>26.6</ele>
        <time>2012-05-02T19:06:50Z</time>
      </trkpt>
      <trkpt lat="59.42542" lon="17.8331733">
        <ele>26</ele>
        <time>2012-05-02T19:06:56Z</time>
      </trkpt>
      <trkpt lat="59.4249818" lon="17.8332136">
        <ele>26.6</ele>
        <time>2012-05-02T19:07:01Z</time>
      </trkpt>
      <trkpt lat="59.4245942" lon="17.8333584">
        <ele>26.2</ele>
        <time>2012-05-02T19:07:06Z</time>
      </trkpt>
      <trkpt lat="59.4242443" lon="17.8334413">
        <ele>25.4</ele>
        <time>2012-05-02T19:07:10Z</time>
      </trkpt>
      <trkpt lat="59.4238262" lon="17.8335558">
        <ele>24.8</ele>
        <time>2012-05-02T19:07:15Z</time>
      </trkpt>
      <trkpt lat="59.4234035" lon="17.8336068">
        <ele>23.4</ele>
        <time>2012-05-02T19:07:21Z</time>
      </trkpt>
      <trkpt lat="59.42296" lon="17.8335316">
        <ele>23.2</ele>
        <time>2012-05-02T19:07:26Z</time>
      </trkpt>
      <trkpt lat="59.4225282" lon="17.8334867">
        <ele>22.2</ele>
        <time>2012-05-02T19:07:31Z</time>
      </trkpt>
      <trkpt lat="59.4220525" lon="17.8333705">
        <ele>22.6</ele>
        <time>2012-05-02T19:07:36Z</time>
      </trkpt>
      <trkpt lat="59.4218888" lon="17.8333456">
        <ele>23</ele>
        <time>2012-05-02T19:07:38Z</time>
      </trkpt>
      <trkpt lat="59.4216763" lon="17.8335514">
        <ele>23.4</ele>
        <time>2012-05-02T19:07:41Z</time>
      </trkpt>
      <trkpt lat="59.421561" lon="17.8343461">
        <ele>25.2</ele>
        <time>2012-05-02T19:07:46Z</time>
      </trkpt>
      <trkpt lat="59.4215443" lon="17.8346094">
        <ele>25.6</ele>
        <time>2012-05-02T19:07:48Z</time>
      </trkpt>
      <trkpt lat="59.4215431" lon="17.8351281">
        <ele>29</ele>
        <time>2012-05-02T19:07:51Z</time>
      </trkpt>
      <trkpt lat="59.4212615" lon="17.8355522">
        <ele>34.4</ele>
        <time>2012-05-02T19:07:57Z</time>
      </trkpt>
      <trkpt lat="59.4209371" lon="17.8357192">
        <ele>38.4</ele>
        <time>2012-05-02T19:08:03Z</time>
      </trkpt>
      <trkpt lat="59.4204737" lon="17.8359311">
        <ele>38</ele>
        <time>2012-05-02T19:08:08Z</time>
      </trkpt>
      <trkpt lat="59.4200773" lon="17.8359678">
        <ele>40.4</ele>
        <time>2012-05-02T19:08:14Z</time>
      </trkpt>
      <trkpt lat="59.4196395" lon="17.8358999">
        <ele>37</ele>
        <time>2012-05-02T19:08:20Z</time>
      </trkpt>
      <trkpt lat="59.4192532" lon="17.8357472">
        <ele>38.6</ele>
        <time>2012-05-02T19:08:26Z</time>
      </trkpt>
      <trkpt lat="59.4188182" lon="17.8355418">
        <ele>37.2</ele>
        <time>2012-05-02T19:08:32Z</time>
      </trkpt>
      <trkpt lat="59.4185053" lon="17.8352497">
        <ele>37.6</ele>
        <time>2012-05-02T19:08:37Z</time>
      </trkpt>
      <trkpt lat="59.4181241" lon="17.8350116">
        <ele>39.4</ele>
        <time>2012-05-02T19:08:43Z</time>
      </trkpt>
      <trkpt lat="59.4179622" lon="17.8348713">
        <ele>38.6</ele>
        <time>2012-05-02T19:08:46Z</time>
      </trkpt>
      <trkpt lat="59.4179043" lon="17.8344459">
        <ele>36.4</ele>
        <time>2012-05-02T19:08:50Z</time>
      </trkpt>
      <trkpt lat="59.4179487" lon="17.8336337">
        <ele>34.8</ele>
        <time>2012-05-02T19:08:55Z</time>
      </trkpt>
      <trkpt lat="59.4179835" lon="17.8326702">
        <ele>30</ele>
        <time>2012-05-02T19:08:59Z</time>
      </trkpt>
      <trkpt lat="59.4180161" lon="17.831885">
        <ele>28.2</ele>
        <time>2012-05-02T19:09:02Z</time>
      </trkpt>
      <trkpt lat="59.4180612" lon="17.8311613">
        <ele>28.4</ele>
        <time>2012-05-02T19:09:05Z</time>
      </trkpt>
      <trkpt lat="59.4181187" lon="17.8303768">
        <ele>29.2</ele>
        <time>2012-05-02T19:09:08Z</time>
      </trkpt>
      <trkpt lat="59.4181198" lon="17.8302791">
        <ele>29.8</ele>
        <time>2012-05-02T19:09:10Z</time>
      </trkpt>
      <trkpt lat="59.418169" lon="17.8300908">
        <ele>30</ele>
        <time>2012-05-02T19:09:12Z</time>
      </trkpt>
      <trkpt lat="59.4182389" lon="17.8298154">
        <ele>30.6</ele>
        <time>2012-05-02T19:09:17Z</time>
      </trkpt>
      <trkpt lat="59.4182458" lon="17.829713">
        <ele>30.6</ele>
        <time>2012-05-02T19:09:18Z</time>
      </trkpt>
      <trkpt lat="59.4182439" lon="17.8296277">
        <ele>30.4</ele>
        <time>2012-05-02T19:09:19Z</time>
      </trkpt>
      <trkpt lat="59.4178405" lon="17.8293807">
        <ele>28.2</ele>
        <time>2012-05-02T19:09:26Z</time>
      </trkpt>
      <trkpt lat="59.4173868" lon="17.8291332">
        <ele>28</ele>
        <time>2012-05-02T19:09:31Z</time>
      </trkpt>
      <trkpt lat="59.4170223" lon="17.8289269">
        <ele>27.2</ele>
        <time>2012-05-02T19:09:35Z</time>
      </trkpt>
      <trkpt lat="59.4166632" lon="17.8287233">
        <ele>25.2</ele>
        <time>2012-05-02T19:09:39Z</time>
      </trkpt>
      <trkpt lat="59.416312" lon="17.828568">
        <ele>23.4</ele>
        <time>2012-05-02T19:09:43Z</time>
      </trkpt>
      <trkpt lat="59.4158398" lon="17.8283575">
        <ele>21.2</ele>
        <time>2012-05-02T19:09:48Z</time>
      </trkpt>
      <trkpt lat="59.4155436" lon="17.828277">
        <ele>20.8</ele>
        <time>2012-05-02T19:09:53Z</time>
      </trkpt>
      <trkpt lat="59.4151882" lon="17.8282489">
        <ele>20.2</ele>
        <time>2012-05-02T19:10:01Z</time>
      </trkpt>
      <trkpt lat="59.4150644" lon="17.8282463">
        <ele>19.8</ele>
        <time>2012-05-02T19:10:04Z</time>
      </trkpt>
      <trkpt lat="59.4149562" lon="17.8278777">
        <ele>20</ele>
        <time>2012-05-02T19:10:09Z</time>
      </trkpt>
      <trkpt lat="59.415066" lon="17.8273957">
        <ele>20.8</ele>
        <time>2012-05-02T19:10:13Z</time>
      </trkpt>
      <trkpt lat="59.4151505" lon="17.8271347">
        <ele>21.2</ele>
        <time>2012-05-02T19:10:15Z</time>
      </trkpt>
      <trkpt lat="59.4153622" lon="17.8265079">
        <ele>22</ele>
        <time>2012-05-02T19:10:20Z</time>
      </trkpt>
      <trkpt lat="59.4153925" lon="17.8263757">
        <ele>21.8</ele>
        <time>2012-05-02T19:10:21Z</time>
      </trkpt>
      <trkpt lat="59.4152402" lon="17.8259194">
        <ele>22.4</ele>
        <time>2012-05-02T19:10:25Z</time>
      </trkpt>
      <trkpt lat="59.4151775" lon="17.8258234">
        <ele>22.6</ele>
        <time>2012-05-02T19:10:26Z</time>
      </trkpt>
      <trkpt lat="59.4148951" lon="17.8254696">
        <ele>22.8</ele>
        <time>2012-05-02T19:10:30Z</time>
      </trkpt>
      <trkpt lat="59.4148154" lon="17.8254008">
        <ele>22.8</ele>
        <time>2012-05-02T19:10:31Z</time>
      </trkpt>
      <trkpt lat="59.4144716" lon="17.8253274">
        <ele>22.8</ele>
        <time>2012-05-02T19:10:35Z</time>
      </trkpt>
      <trkpt lat="59.4140969" lon="17.8256998">
        <ele>23.4</ele>
        <time>2012-05-02T19:10:40Z</time>
      </trkpt>
      <trkpt lat="59.4139787" lon="17.8259333">
        <ele>23.8</ele>
        <time>2012-05-02T19:10:42Z</time>
      </trkpt>
      <trkpt lat="59.4137943" lon="17.8262718">
        <ele>24.2</ele>
        <time>2012-05-02T19:10:45Z</time>
      </trkpt>
      <trkpt lat="59.4137259" lon="17.8263577">
        <ele>24.4</ele>
        <time>2012-05-02T19:10:46Z</time>
      </trkpt>
      <trkpt lat="59.4134292" lon="17.8265452">
        <ele>24.6</ele>
        <time>2012-05-02T19:10:50Z</time>
      </trkpt>
      <trkpt lat="59.4132759" lon="17.8265622">
        <ele>24.6</ele>
        <time>2012-05-02T19:10:52Z</time>
      </trkpt>
      <trkpt lat="59.4130568" lon="17.8265821">
        <ele>25.8</ele>
        <time>2012-05-02T19:10:55Z</time>
      </trkpt>
      <trkpt lat="59.4126492" lon="17.8266323">
        <ele>26.8</ele>
        <time>2012-05-02T19:11:01Z</time>
      </trkpt>
      <trkpt lat="59.4122771" lon="17.8266727">
        <ele>28.4</ele>
        <time>2012-05-02T19:11:07Z</time>
      </trkpt>
      <trkpt lat="59.4118566" lon="17.8267301">
        <ele>30.4</ele>
        <time>2012-05-02T19:11:14Z</time>
      </trkpt>
      <trkpt lat="59.4114908" lon="17.826869">
        <ele>30.8</ele>
        <time>2012-05-02T19:11:20Z</time>
      </trkpt>
      <trkpt lat="59.4111396" lon="17.8271885">
        <ele>29.8</ele>
        <time>2012-05-02T19:11:26Z</time>
      </trkpt>
      <trkpt lat="59.4110776" lon="17.8272321">
        <ele>29.6</ele>
        <time>2012-05-02T19:11:27Z</time>
      </trkpt>
      <trkpt lat="59.4108374" lon="17.8268631">
        <ele>29.6</ele>
        <time>2012-05-02T19:11:32Z</time>
      </trkpt>
      <trkpt lat="59.4108003" lon="17.8267462">
        <ele>29.2</ele>
        <time>2012-05-02T19:11:33Z</time>
      </trkpt>
      <trkpt lat="59.4106497" lon="17.8262296">
        <ele>28</ele>
        <time>2012-05-02T19:11:37Z</time>
      </trkpt>
      <trkpt lat="59.410406" lon="17.8254961">
        <ele>26.2</ele>
        <time>2012-05-02T19:11:42Z</time>
      </trkpt>
      <trkpt lat="59.4101109" lon="17.8249854">
        <ele>25.4</ele>
        <time>2012-05-02T19:11:46Z</time>
      </trkpt>
      <trkpt lat="59.4097602" lon="17.8246393">
        <ele>25.4</ele>
        <time>2012-05-02T19:11:50Z</time>
      </trkpt>
      <trkpt lat="59.4094199" lon="17.8243519">
        <ele>25.8</ele>
        <time>2012-05-02T19:11:54Z</time>
      </trkpt>
      <trkpt lat="59.4090868" lon="17.8240743">
        <ele>26.6</ele>
        <time>2012-05-02T19:11:58Z</time>
      </trkpt>
      <trkpt lat="59.4086755" lon="17.82373">
        <ele>26.8</ele>
        <time>2012-05-02T19:12:03Z</time>
      </trkpt>
      <trkpt lat="59.40828" lon="17.8233978">
        <ele>27</ele>
        <time>2012-05-02T19:12:08Z</time>
      </trkpt>
      <trkpt lat="59.4078954" lon="17.8230263">
        <ele>27.2</ele>
        <time>2012-05-02T19:12:13Z</time>
      </trkpt>
      <trkpt lat="59.4076939" lon="17.8227208">
        <ele>27.4</ele>
        <time>2012-05-02T19:12:16Z</time>
      </trkpt>
      <trkpt lat="59.4075876" lon="17.8224673">
        <ele>27.4</ele>
        <time>2012-05-02T19:12:18Z</time>
      </trkpt>
      <trkpt lat="59.4073626" lon="17.8217992">
        <ele>28.2</ele>
        <time>2012-05-02T19:12:23Z</time>
      </trkpt>
      <trkpt lat="59.4073183" lon="17.821664">
        <ele>28.4</ele>
        <time>2012-05-02T19:12:24Z</time>
      </trkpt>
      <trkpt lat="59.4071433" lon="17.8211285">
        <ele>29</ele>
        <time>2012-05-02T19:12:28Z</time>
      </trkpt>
      <trkpt lat="59.4068873" lon="17.8205463">
        <ele>29</ele>
        <time>2012-05-02T19:12:33Z</time>
      </trkpt>
      <trkpt lat="59.4065739" lon="17.8201126">
        <ele>28.6</ele>
        <time>2012-05-02T19:12:38Z</time>
      </trkpt>
      <trkpt lat="59.4065159" lon="17.8200333">
        <ele>28.6</ele>
        <time>2012-05-02T19:12:39Z</time>
      </trkpt>
      <trkpt lat="59.406549" lon="17.8193776">
        <ele>28.2</ele>
        <time>2012-05-02T19:12:44Z</time>
      </trkpt>
      <trkpt lat="59.4065982" lon="17.8192449">
        <ele>28.2</ele>
        <time>2012-05-02T19:12:45Z</time>
      </trkpt>
      <trkpt lat="59.4067951" lon="17.8187049">
        <ele>28</ele>
        <time>2012-05-02T19:12:49Z</time>
      </trkpt>
      <trkpt lat="59.4070376" lon="17.8180121">
        <ele>27.4</ele>
        <time>2012-05-02T19:12:54Z</time>
      </trkpt>
      <trkpt lat="59.4072762" lon="17.8172937">
        <ele>27.2</ele>
        <time>2012-05-02T19:12:59Z</time>
      </trkpt>
      <trkpt lat="59.4075379" lon="17.8165896">
        <ele>26.6</ele>
        <time>2012-05-02T19:13:04Z</time>
      </trkpt>
      <trkpt lat="59.4077924" lon="17.8158942">
        <ele>26.6</ele>
        <time>2012-05-02T19:13:09Z</time>
      </trkpt>
      <trkpt lat="59.4080658" lon="17.8152362">
        <ele>26.8</ele>
        <time>2012-05-02T19:13:14Z</time>
      </trkpt>
      <trkpt lat="59.4083641" lon="17.8146164">
        <ele>27.4</ele>
        <time>2012-05-02T19:13:19Z</time>
      </trkpt>
      <trkpt lat="59.4086558" lon="17.8139795">
        <ele>28</ele>
        <time>2012-05-02T19:13:24Z</time>
      </trkpt>
      <trkpt lat="59.4089174" lon="17.813293">
        <ele>28</ele>
        <time>2012-05-02T19:13:29Z</time>
      </trkpt>
      <trkpt lat="59.4091638" lon="17.8125915">
        <ele>30</ele>
        <time>2012-05-02T19:13:34Z</time>
      </trkpt>
      <trkpt lat="59.4093322" lon="17.8120104">
        <ele>30.8</ele>
        <time>2012-05-02T19:13:38Z</time>
      </trkpt>
      <trkpt lat="59.4093683" lon="17.8118677">
        <ele>31.6</ele>
        <time>2012-05-02T19:13:39Z</time>
      </trkpt>
      <trkpt lat="59.409554" lon="17.8112283">
        <ele>33.4</ele>
        <time>2012-05-02T19:13:44Z</time>
      </trkpt>
      <trkpt lat="59.4097431" lon="17.8106216">
        <ele>35</ele>
        <time>2012-05-02T19:13:49Z</time>
      </trkpt>
      <trkpt lat="59.409953" lon="17.8100089">
        <ele>36.2</ele>
        <time>2012-05-02T19:13:54Z</time>
      </trkpt>
      <trkpt lat="59.4101813" lon="17.8093779">
        <ele>37.6</ele>
        <time>2012-05-02T19:13:59Z</time>
      </trkpt>
      <trkpt lat="59.4104004" lon="17.8087257">
        <ele>38.2</ele>
        <time>2012-05-02T19:14:04Z</time>
      </trkpt>
      <trkpt lat="59.4105413" lon="17.8083896">
        <ele>41</ele>
        <time>2012-05-02T19:14:07Z</time>
      </trkpt>
      <trkpt lat="59.4106382" lon="17.8081614">
        <ele>41.6</ele>
        <time>2012-05-02T19:14:09Z</time>
      </trkpt>
      <trkpt lat="59.4108303" lon="17.8075156">
        <ele>41.6</ele>
        <time>2012-05-02T19:14:14Z</time>
      </trkpt>
      <trkpt lat="59.4109908" lon="17.8067972">
        <ele>40.2</ele>
        <time>2012-05-02T19:14:19Z</time>
      </trkpt>
      <trkpt lat="59.4111432" lon="17.8060669">
        <ele>39.6</ele>
        <time>2012-05-02T19:14:24Z</time>
      </trkpt>
      <trkpt lat="59.411298" lon="17.8053685">
        <ele>39.6</ele>
        <time>2012-05-02T19:14:29Z</time>
      </trkpt>
      <trkpt lat="59.4113451" lon="17.8050872">
        <ele>39</ele>
        <time>2012-05-02T19:14:31Z</time>
      </trkpt>
      <trkpt lat="59.4112349" lon="17.8046411">
        <ele>38.2</ele>
        <time>2012-05-02T19:14:34Z</time>
      </trkpt>
      <trkpt lat="59.4110047" lon="17.8044248">
        <ele>37.4</ele>
        <time>2012-05-02T19:14:37Z</time>
      </trkpt>
      <trkpt lat="59.4108506" lon="17.8043121">
        <ele>37.2</ele>
        <time>2012-05-02T19:14:39Z</time>
      </trkpt>
      <trkpt lat="59.4107315" lon="17.8041658">
        <ele>37.2</ele>
        <time>2012-05-02T19:14:41Z</time>
      </trkpt>
      <trkpt lat="59.4107382" lon="17.8037015">
        <ele>41</ele>
        <time>2012-05-02T19:14:45Z</time>
      </trkpt>
      <trkpt lat="59.4107733" lon="17.8035812">
        <ele>41</ele>
        <time>2012-05-02T19:14:46Z</time>
      </trkpt>
      <trkpt lat="59.4108626" lon="17.8032011">
        <ele>41.2</ele>
        <time>2012-05-02T19:14:49Z</time>
      </trkpt>
      <trkpt lat="59.4108554" lon="17.8029239">
        <ele>41</ele>
        <time>2012-05-02T19:14:51Z</time>
      </trkpt>
      <trkpt lat="59.4105313" lon="17.8025283">
        <ele>40.2</ele>
        <time>2012-05-02T19:14:56Z</time>
      </trkpt>
      <trkpt lat="59.4101286" lon="17.8022376">
        <ele>40.2</ele>
        <time>2012-05-02T19:15:02Z</time>
      </trkpt>
      <trkpt lat="59.409771" lon="17.8019924">
        <ele>41</ele>
        <time>2012-05-02T19:15:08Z</time>
      </trkpt>
      <trkpt lat="59.409482" lon="17.8018128">
        <ele>43.4</ele>
        <time>2012-05-02T19:15:13Z</time>
      </trkpt>
      <trkpt lat="59.4094284" lon="17.8017414">
        <ele>43.4</ele>
        <time>2012-05-02T19:15:14Z</time>
      </trkpt>
      <trkpt lat="59.4093717" lon="17.8011606">
        <ele>44.2</ele>
        <time>2012-05-02T19:15:19Z</time>
      </trkpt>
      <trkpt lat="59.4093794" lon="17.8010332">
        <ele>44</ele>
        <time>2012-05-02T19:15:20Z</time>
      </trkpt>
      <trkpt lat="59.4093873" lon="17.8002225">
        <ele>44.6</ele>
        <time>2012-05-02T19:15:26Z</time>
      </trkpt>
      <trkpt lat="59.4093606" lon="17.7994414">
        <ele>45.2</ele>
        <time>2012-05-02T19:15:32Z</time>
      </trkpt>
      <trkpt lat="59.4093389" lon="17.7987108">
        <ele>46.8</ele>
        <time>2012-05-02T19:15:38Z</time>
      </trkpt>
      <trkpt lat="59.4093158" lon="17.7980122">
        <ele>48.2</ele>
        <time>2012-05-02T19:15:44Z</time>
      </trkpt>
      <trkpt lat="59.4092929" lon="17.7977123">
        <ele>48.6</ele>
        <time>2012-05-02T19:15:47Z</time>
      </trkpt>
      <trkpt lat="59.4092333" lon="17.7974304">
        <ele>48.8</ele>
        <time>2012-05-02T19:15:50Z</time>
      </trkpt>
      <trkpt lat="59.4092173" lon="17.7973264">
        <ele>48.8</ele>
        <time>2012-05-02T19:15:51Z</time>
      </trkpt>
      <trkpt lat="59.4090473" lon="17.7966023">
        <ele>48.8</ele>
        <time>2012-05-02T19:15:58Z</time>
      </trkpt>
      <trkpt lat="59.4089137" lon="17.7962296">
        <ele>49.8</ele>
        <time>2012-05-02T19:16:02Z</time>
      </trkpt>
      <trkpt lat="59.4088728" lon="17.7960356">
        <ele>50.6</ele>
        <time>2012-05-02T19:16:04Z</time>
      </trkpt>
      <trkpt lat="59.4088617" lon="17.7959411">
        <ele>50.8</ele>
        <time>2012-05-02T19:16:05Z</time>
      </trkpt>
      <trkpt lat="59.4088644" lon="17.7955618">
        <ele>51.8</ele>
        <time>2012-05-02T19:16:09Z</time>
      </trkpt>
      <trkpt lat="59.4088816" lon="17.7951678">
        <ele>52.6</ele>
        <time>2012-05-02T19:16:13Z</time>
      </trkpt>
      <trkpt lat="59.408914" lon="17.794408">
        <ele>53.6</ele>
        <time>2012-05-02T19:16:20Z</time>
      </trkpt>
      <trkpt lat="59.4089627" lon="17.7936407">
        <ele>54.6</ele>
        <time>2012-05-02T19:16:27Z</time>
      </trkpt>
      <trkpt lat="59.4090045" lon="17.7928704">
        <ele>55.6</ele>
        <time>2012-05-02T19:16:34Z</time>
      </trkpt>
      <trkpt lat="59.4090562" lon="17.7921163">
        <ele>57</ele>
        <time>2012-05-02T19:16:41Z</time>
      </trkpt>
      <trkpt lat="59.4091114" lon="17.7913714">
        <ele>58.6</ele>
        <time>2012-05-02T19:16:48Z</time>
      </trkpt>
      <trkpt lat="59.409177" lon="17.7906435">
        <ele>60.2</ele>
        <time>2012-05-02T19:16:55Z</time>
      </trkpt>
      <trkpt lat="59.4092453" lon="17.7898437">
        <ele>61.8</ele>
        <time>2012-05-02T19:17:02Z</time>
      </trkpt>
      <trkpt lat="59.4093044" lon="17.7891323">
        <ele>63.4</ele>
        <time>2012-05-02T19:17:08Z</time>
      </trkpt>
      <trkpt lat="59.4093779" lon="17.7884267">
        <ele>64.4</ele>
        <time>2012-05-02T19:17:14Z</time>
      </trkpt>
      <trkpt lat="59.409443" lon="17.7877205">
        <ele>65.4</ele>
        <time>2012-05-02T19:17:20Z</time>
      </trkpt>
      <trkpt lat="59.4095333" lon="17.7868833">
        <ele>64.8</ele>
        <time>2012-05-02T19:17:27Z</time>
      </trkpt>
      <trkpt lat="59.4095519" lon="17.7867605">
        <ele>63.8</ele>
        <time>2012-05-02T19:17:28Z</time>
      </trkpt>
      <trkpt lat="59.4096499" lon="17.7861103">
        <ele>62.8</ele>
        <time>2012-05-02T19:17:33Z</time>
      </trkpt>
      <trkpt lat="59.4097172" lon="17.7855924">
        <ele>64.2</ele>
        <time>2012-05-02T19:17:37Z</time>
      </trkpt>
      <trkpt lat="59.4097653" lon="17.7853707">
        <ele>65.6</ele>
        <time>2012-05-02T19:17:39Z</time>
      </trkpt>
      <trkpt lat="59.4097789" lon="17.785248">
        <ele>66</ele>
        <time>2012-05-02T19:17:40Z</time>
      </trkpt>
      <trkpt lat="59.409798" lon="17.7849988">
        <ele>66.6</ele>
        <time>2012-05-02T19:17:42Z</time>
      </trkpt>
      <trkpt lat="59.4097918" lon="17.7845926">
        <ele>67.4</ele>
        <time>2012-05-02T19:17:45Z</time>
      </trkpt>
      <trkpt lat="59.4097256" lon="17.7838859">
        <ele>68.4</ele>
        <time>2012-05-02T19:17:50Z</time>
      </trkpt>
      <trkpt lat="59.4095996" lon="17.7833137">
        <ele>68.4</ele>
        <time>2012-05-02T19:17:54Z</time>
      </trkpt>
      <trkpt lat="59.4095539" lon="17.7831749">
        <ele>68.4</ele>
        <time>2012-05-02T19:17:55Z</time>
      </trkpt>
      <trkpt lat="59.4094214" lon="17.7827325">
        <ele>67.4</ele>
        <time>2012-05-02T19:17:58Z</time>
      </trkpt>
      <trkpt lat="59.4093965" lon="17.7823973">
        <ele>67.2</ele>
        <time>2012-05-02T19:18:00Z</time>
      </trkpt>
      <trkpt lat="59.4094018" lon="17.7816265">
        <ele>67.4</ele>
        <time>2012-05-02T19:18:05Z</time>
      </trkpt>
      <trkpt lat="59.4094399" lon="17.780868">
        <ele>67.8</ele>
        <time>2012-05-02T19:18:10Z</time>
      </trkpt>
      <trkpt lat="59.4094892" lon="17.780063">
        <ele>67.6</ele>
        <time>2012-05-02T19:18:15Z</time>
      </trkpt>
      <trkpt lat="59.4095984" lon="17.7792525">
        <ele>65</ele>
        <time>2012-05-02T19:18:20Z</time>
      </trkpt>
      <trkpt lat="59.4097436" lon="17.7784298">
        <ele>62.4</ele>
        <time>2012-05-02T19:18:25Z</time>
      </trkpt>
      <trkpt lat="59.4098653" lon="17.777758">
        <ele>60.6</ele>
        <time>2012-05-02T19:18:29Z</time>
      </trkpt>
      <trkpt lat="59.4098808" lon="17.7768917">
        <ele>60.2</ele>
        <time>2012-05-02T19:18:34Z</time>
      </trkpt>
      <trkpt lat="59.4099319" lon="17.7760354">
        <ele>60</ele>
        <time>2012-05-02T19:18:39Z</time>
      </trkpt>
      <trkpt lat="59.4100267" lon="17.7753508">
        <ele>57.6</ele>
        <time>2012-05-02T19:18:43Z</time>
      </trkpt>
      <trkpt lat="59.4101834" lon="17.7746537">
        <ele>56.8</ele>
        <time>2012-05-02T19:18:47Z</time>
      </trkpt>
      <trkpt lat="59.4103695" lon="17.7739828">
        <ele>54</ele>
        <time>2012-05-02T19:18:51Z</time>
      </trkpt>
      <trkpt lat="59.4105624" lon="17.7733449">
        <ele>53</ele>
        <time>2012-05-02T19:18:55Z</time>
      </trkpt>
      <trkpt lat="59.4106849" lon="17.7728052">
        <ele>52.4</ele>
        <time>2012-05-02T19:18:58Z</time>
      </trkpt>
      <trkpt lat="59.4107084" lon="17.7726043">
        <ele>52</ele>
        <time>2012-05-02T19:18:59Z</time>
      </trkpt>
      <trkpt lat="59.410693" lon="17.7717562">
        <ele>50.2</ele>
        <time>2012-05-02T19:19:03Z</time>
      </trkpt>
      <trkpt lat="59.410633" lon="17.7709194">
        <ele>48.6</ele>
        <time>2012-05-02T19:19:07Z</time>
      </trkpt>
      <trkpt lat="59.4105776" lon="17.7701224">
        <ele>47.4</ele>
        <time>2012-05-02T19:19:11Z</time>
      </trkpt>
      <trkpt lat="59.4105947" lon="17.769316">
        <ele>46</ele>
        <time>2012-05-02T19:19:15Z</time>
      </trkpt>
      <trkpt lat="59.4106418" lon="17.7687642">
        <ele>44.8</ele>
        <time>2012-05-02T19:19:18Z</time>
      </trkpt>
      <trkpt lat="59.4106801" lon="17.7685908">
        <ele>44.6</ele>
        <time>2012-05-02T19:19:19Z</time>
      </trkpt>
      <trkpt lat="59.4109468" lon="17.7680003">
        <ele>41.8</ele>
        <time>2012-05-02T19:19:23Z</time>
      </trkpt>
      <trkpt lat="59.4119815" lon="17.7670999">
        <ele>35.6</ele>
        <time>2012-05-02T19:19:33Z</time>
      </trkpt>
      <trkpt lat="59.4124004" lon="17.7667907">
        <ele>33.4</ele>
        <time>2012-05-02T19:19:37Z</time>
      </trkpt>
      <trkpt lat="59.4127007" lon="17.7665792">
        <ele>31.8</ele>
        <time>2012-05-02T19:19:40Z</time>
      </trkpt>
      <trkpt lat="59.4127977" lon="17.7664891">
        <ele>31.2</ele>
        <time>2012-05-02T19:19:41Z</time>
      </trkpt>
      <trkpt lat="59.4131682" lon="17.7660981">
        <ele>31</ele>
        <time>2012-05-02T19:19:45Z</time>
      </trkpt>
      <trkpt lat="59.4132664" lon="17.7660148">
        <ele>30.8</ele>
        <time>2012-05-02T19:19:46Z</time>
      </trkpt>
      <trkpt lat="59.4135598" lon="17.765841">
        <ele>29.6</ele>
        <time>2012-05-02T19:19:49Z</time>
      </trkpt>
      <trkpt lat="59.4139405" lon="17.7656076">
        <ele>28</ele>
        <time>2012-05-02T19:19:53Z</time>
      </trkpt>
      <trkpt lat="59.4142518" lon="17.7651864">
        <ele>27.4</ele>
        <time>2012-05-02T19:19:57Z</time>
      </trkpt>
      <trkpt lat="59.4145735" lon="17.7646706">
        <ele>25</ele>
        <time>2012-05-02T19:20:01Z</time>
      </trkpt>
      <trkpt lat="59.4148377" lon="17.7642554">
        <ele>24</ele>
        <time>2012-05-02T19:20:04Z</time>
      </trkpt>
      <trkpt lat="59.4149475" lon="17.7641541">
        <ele>23.2</ele>
        <time>2012-05-02T19:20:05Z</time>
      </trkpt>
      <trkpt lat="59.4153011" lon="17.7640358">
        <ele>21.6</ele>
        <time>2012-05-02T19:20:08Z</time>
      </trkpt>
      <trkpt lat="59.4155229" lon="17.764109">
        <ele>21.2</ele>
        <time>2012-05-02T19:20:10Z</time>
      </trkpt>
      <trkpt lat="59.4157203" lon="17.7641487">
        <ele>20.6</ele>
        <time>2012-05-02T19:20:12Z</time>
      </trkpt>
      <trkpt lat="59.4159152" lon="17.7641716">
        <ele>20</ele>
        <time>2012-05-02T19:20:14Z</time>
      </trkpt>
      <trkpt lat="59.4160949" lon="17.7641017">
        <ele>18.8</ele>
        <time>2012-05-02T19:20:16Z</time>
      </trkpt>
      <trkpt lat="59.416271" lon="17.7639856">
        <ele>17.2</ele>
        <time>2012-05-02T19:20:18Z</time>
      </trkpt>
      <trkpt lat="59.4165074" lon="17.7637954">
        <ele>15.8</ele>
        <time>2012-05-02T19:20:21Z</time>
      </trkpt>
      <trkpt lat="59.4167155" lon="17.7635846">
        <ele>14.2</ele>
        <time>2012-05-02T19:20:25Z</time>
      </trkpt>
      <trkpt lat="59.4167056" lon="17.7635292">
        <ele>14.6</ele>
        <time>2012-05-02T19:20:32Z</time>
      </trkpt>
      <trkpt lat="59.4165513" lon="17.7637433">
        <ele>16.4</ele>
        <time>2012-05-02T19:20:37Z</time>
      </trkpt>
      <trkpt lat="59.4164032" lon="17.7638598">
        <ele>17.8</ele>
        <time>2012-05-02T19:20:40Z</time>
      </trkpt>
      <trkpt lat="59.4160178" lon="17.7641432">
        <ele>21</ele>
        <time>2012-05-02T19:20:48Z</time>
      </trkpt>
      <trkpt lat="59.4156379" lon="17.7640929">
        <ele>23.8</ele>
        <time>2012-05-02T19:20:55Z</time>
      </trkpt>
      <trkpt lat="59.4153328" lon="17.7640333">
        <ele>24.8</ele>
        <time>2012-05-02T19:21:00Z</time>
      </trkpt>
      <trkpt lat="59.4152729" lon="17.7640306">
        <ele>24.8</ele>
        <time>2012-05-02T19:21:01Z</time>
      </trkpt>
      <trkpt lat="59.415212" lon="17.7640323">
        <ele>25</ele>
        <time>2012-05-02T19:21:02Z</time>
      </trkpt>
      <trkpt lat="59.4149003" lon="17.7641829">
        <ele>25.6</ele>
        <time>2012-05-02T19:21:07Z</time>
      </trkpt>
      <trkpt lat="59.414803" lon="17.7642833">
        <ele>26.4</ele>
        <time>2012-05-02T19:21:09Z</time>
      </trkpt>
      <trkpt lat="59.4145983" lon="17.7645928">
        <ele>26.8</ele>
        <time>2012-05-02T19:21:14Z</time>
      </trkpt>
      <trkpt lat="59.4142983" lon="17.7650629">
        <ele>28</ele>
        <time>2012-05-02T19:21:22Z</time>
      </trkpt>
      <trkpt lat="59.4139794" lon="17.7654614">
        <ele>30</ele>
        <time>2012-05-02T19:21:30Z</time>
      </trkpt>
      <trkpt lat="59.4136072" lon="17.7657371">
        <ele>32.2</ele>
        <time>2012-05-02T19:21:38Z</time>
      </trkpt>
      <trkpt lat="59.4132303" lon="17.7659747">
        <ele>34.6</ele>
        <time>2012-05-02T19:21:45Z</time>
      </trkpt>
      <trkpt lat="59.4128743" lon="17.7663105">
        <ele>36.2</ele>
        <time>2012-05-02T19:21:51Z</time>
      </trkpt>
      <trkpt lat="59.412518" lon="17.766624">
        <ele>39.4</ele>
        <time>2012-05-02T19:21:57Z</time>
      </trkpt>
      <trkpt lat="59.4121587" lon="17.7668901">
        <ele>41</ele>
        <time>2012-05-02T19:22:03Z</time>
      </trkpt>
      <trkpt lat="59.4118147" lon="17.7672134">
        <ele>42</ele>
        <time>2012-05-02T19:22:09Z</time>
      </trkpt>
      <trkpt lat="59.4114509" lon="17.7675838">
        <ele>42.6</ele>
        <time>2012-05-02T19:22:16Z</time>
      </trkpt>
      <trkpt lat="59.4110807" lon="17.7679572">
        <ele>42</ele>
        <time>2012-05-02T19:22:23Z</time>
      </trkpt>
      <trkpt lat="59.410711" lon="17.7683148">
        <ele>45.2</ele>
        <time>2012-05-02T19:22:30Z</time>
      </trkpt>
      <trkpt lat="59.4106663" lon="17.7683748">
        <ele>45.4</ele>
        <time>2012-05-02T19:22:31Z</time>
      </trkpt>
      <trkpt lat="59.4105801" lon="17.7687518">
        <ele>47.8</ele>
        <time>2012-05-02T19:22:35Z</time>
      </trkpt>
      <trkpt lat="59.4105629" lon="17.7689735">
        <ele>49</ele>
        <time>2012-05-02T19:22:37Z</time>
      </trkpt>
      <trkpt lat="59.4105428" lon="17.7694285">
        <ele>50.6</ele>
        <time>2012-05-02T19:22:41Z</time>
      </trkpt>
      <trkpt lat="59.4105294" lon="17.7697544">
        <ele>52.2</ele>
        <time>2012-05-02T19:22:44Z</time>
      </trkpt>
      <trkpt lat="59.4105236" lon="17.7699669">
        <ele>53</ele>
        <time>2012-05-02T19:22:46Z</time>
      </trkpt>
      <trkpt lat="59.4105372" lon="17.7702871">
        <ele>54.2</ele>
        <time>2012-05-02T19:22:49Z</time>
      </trkpt>
      <trkpt lat="59.4105466" lon="17.7705085">
        <ele>56</ele>
        <time>2012-05-02T19:22:51Z</time>
      </trkpt>
      <trkpt lat="59.4106009" lon="17.7712487">
        <ele>58.8</ele>
        <time>2012-05-02T19:22:58Z</time>
      </trkpt>
      <trkpt lat="59.4106142" lon="17.7715108">
        <ele>61.4</ele>
        <time>2012-05-02T19:23:01Z</time>
      </trkpt>
      <trkpt lat="59.4106214" lon="17.7717772">
        <ele>62.8</ele>
        <time>2012-05-02T19:23:04Z</time>
      </trkpt>
      <trkpt lat="59.4106365" lon="17.7719755">
        <ele>63.6</ele>
        <time>2012-05-02T19:23:06Z</time>
      </trkpt>
      <trkpt lat="59.4106355" lon="17.7723508">
        <ele>62.2</ele>
        <time>2012-05-02T19:23:10Z</time>
      </trkpt>
      <trkpt lat="59.4106295" lon="17.7725477">
        <ele>61.8</ele>
        <time>2012-05-02T19:23:12Z</time>
      </trkpt>
      <trkpt lat="59.4106148" lon="17.7727424">
        <ele>62</ele>
        <time>2012-05-02T19:23:14Z</time>
      </trkpt>
      <trkpt lat="59.4105651" lon="17.7730213">
        <ele>62.6</ele>
        <time>2012-05-02T19:23:17Z</time>
      </trkpt>
      <trkpt lat="59.4104586" lon="17.7733363">
        <ele>64</ele>
        <time>2012-05-02T19:23:21Z</time>
      </trkpt>
      <trkpt lat="59.4104262" lon="17.773414">
        <ele>64.4</ele>
        <time>2012-05-02T19:23:22Z</time>
      </trkpt>
      <trkpt lat="59.4102238" lon="17.7740375">
        <ele>67.4</ele>
        <time>2012-05-02T19:23:29Z</time>
      </trkpt>
      <trkpt lat="59.4100478" lon="17.774724">
        <ele>67.8</ele>
        <time>2012-05-02T19:23:36Z</time>
      </trkpt>
      <trkpt lat="59.4099264" lon="17.7754284">
        <ele>68</ele>
        <time>2012-05-02T19:23:42Z</time>
      </trkpt>
      <trkpt lat="59.4098431" lon="17.7761895">
        <ele>68.6</ele>
        <time>2012-05-02T19:23:48Z</time>
      </trkpt>
      <trkpt lat="59.4098294" lon="17.7769437">
        <ele>68.4</ele>
        <time>2012-05-02T19:23:54Z</time>
      </trkpt>
      <trkpt lat="59.4098243" lon="17.7777103">
        <ele>68</ele>
        <time>2012-05-02T19:24:00Z</time>
      </trkpt>
      <trkpt lat="59.4096964" lon="17.7784346">
        <ele>68</ele>
        <time>2012-05-02T19:24:06Z</time>
      </trkpt>
      <trkpt lat="59.4095613" lon="17.7791924">
        <ele>69.4</ele>
        <time>2012-05-02T19:24:12Z</time>
      </trkpt>
      <trkpt lat="59.4094659" lon="17.7799404">
        <ele>70.6</ele>
        <time>2012-05-02T19:24:18Z</time>
      </trkpt>
      <trkpt lat="59.4093991" lon="17.7806439">
        <ele>71.4</ele>
        <time>2012-05-02T19:24:24Z</time>
      </trkpt>
      <trkpt lat="59.4093663" lon="17.7810663">
        <ele>71.4</ele>
        <time>2012-05-02T19:24:29Z</time>
      </trkpt>
      <trkpt lat="59.4093909" lon="17.7807801">
        <ele>69</ele>
        <time>2012-05-02T19:24:36Z</time>
      </trkpt>
      <trkpt lat="59.4094478" lon="17.7800772">
        <ele>64.8</ele>
        <time>2012-05-02T19:24:44Z</time>
      </trkpt>
      <trkpt lat="59.4095302" lon="17.7793871">
        <ele>63.8</ele>
        <time>2012-05-02T19:24:50Z</time>
      </trkpt>
      <trkpt lat="59.4096294" lon="17.7787095">
        <ele>61.8</ele>
        <time>2012-05-02T19:24:55Z</time>
      </trkpt>
      <trkpt lat="59.4097595" lon="17.7780233">
        <ele>61</ele>
        <time>2012-05-02T19:25:00Z</time>
      </trkpt>
      <trkpt lat="59.4098126" lon="17.7777472">
        <ele>61.8</ele>
        <time>2012-05-02T19:25:02Z</time>
      </trkpt>
      <trkpt lat="59.4098151" lon="17.777215">
        <ele>61.8</ele>
        <time>2012-05-02T19:25:06Z</time>
      </trkpt>
      <trkpt lat="59.4098118" lon="17.7768226">
        <ele>61.6</ele>
        <time>2012-05-02T19:25:09Z</time>
      </trkpt>
      <trkpt lat="59.409842" lon="17.7764491">
        <ele>60.8</ele>
        <time>2012-05-02T19:25:12Z</time>
      </trkpt>
      <trkpt lat="59.40994" lon="17.775659">
        <ele>59.2</ele>
        <time>2012-05-02T19:25:18Z</time>
      </trkpt>
      <trkpt lat="59.410068" lon="17.7749468">
        <ele>58.8</ele>
        <time>2012-05-02T19:25:23Z</time>
      </trkpt>
      <trkpt lat="59.4102668" lon="17.7742381">
        <ele>59.6</ele>
        <time>2012-05-02T19:25:28Z</time>
      </trkpt>
      <trkpt lat="59.4104952" lon="17.7735015">
        <ele>58.8</ele>
        <time>2012-05-02T19:25:33Z</time>
      </trkpt>
      <trkpt lat="59.4106606" lon="17.7728365">
        <ele>57</ele>
        <time>2012-05-02T19:25:37Z</time>
      </trkpt>
      <trkpt lat="59.4107023" lon="17.7724703">
        <ele>55.8</ele>
        <time>2012-05-02T19:25:39Z</time>
      </trkpt>
      <trkpt lat="59.4106901" lon="17.7720848">
        <ele>55.2</ele>
        <time>2012-05-02T19:25:41Z</time>
      </trkpt>
      <trkpt lat="59.4106251" lon="17.771328">
        <ele>53.2</ele>
        <time>2012-05-02T19:25:45Z</time>
      </trkpt>
      <trkpt lat="59.4105642" lon="17.7705448">
        <ele>51.8</ele>
        <time>2012-05-02T19:25:49Z</time>
      </trkpt>
      <trkpt lat="59.4105362" lon="17.7699496">
        <ele>51</ele>
        <time>2012-05-02T19:25:52Z</time>
      </trkpt>
      <trkpt lat="59.4105411" lon="17.7697595">
        <ele>49.8</ele>
        <time>2012-05-02T19:25:53Z</time>
      </trkpt>
      <trkpt lat="59.4106077" lon="17.7689066">
        <ele>45.2</ele>
        <time>2012-05-02T19:25:58Z</time>
      </trkpt>
      <trkpt lat="59.4106616" lon="17.768551">
        <ele>43.8</ele>
        <time>2012-05-02T19:26:00Z</time>
      </trkpt>
      <trkpt lat="59.4107652" lon="17.7682514">
        <ele>42</ele>
        <time>2012-05-02T19:26:02Z</time>
      </trkpt>
      <trkpt lat="59.4110598" lon="17.7678445">
        <ele>39</ele>
        <time>2012-05-02T19:26:06Z</time>
      </trkpt>
      <trkpt lat="59.4112639" lon="17.7676997">
        <ele>37.2</ele>
        <time>2012-05-02T19:26:08Z</time>
      </trkpt>
      <trkpt lat="59.4114637" lon="17.7675381">
        <ele>35.8</ele>
        <time>2012-05-02T19:26:10Z</time>
      </trkpt>
      <trkpt lat="59.4118444" lon="17.7672066">
        <ele>33.8</ele>
        <time>2012-05-02T19:26:14Z</time>
      </trkpt>
      <trkpt lat="59.4121995" lon="17.7669083">
        <ele>32</ele>
        <time>2012-05-02T19:26:18Z</time>
      </trkpt>
      <trkpt lat="59.4126062" lon="17.7666341">
        <ele>31.8</ele>
        <time>2012-05-02T19:26:23Z</time>
      </trkpt>
      <trkpt lat="59.4129977" lon="17.7662596">
        <ele>29.8</ele>
        <time>2012-05-02T19:26:28Z</time>
      </trkpt>
      <trkpt lat="59.4133401" lon="17.7659803">
        <ele>28.8</ele>
        <time>2012-05-02T19:26:32Z</time>
      </trkpt>
      <trkpt lat="59.413751" lon="17.7657423">
        <ele>29.2</ele>
        <time>2012-05-02T19:26:37Z</time>
      </trkpt>
      <trkpt lat="59.4140771" lon="17.7654685">
        <ele>26.4</ele>
        <time>2012-05-02T19:26:41Z</time>
      </trkpt>
      <trkpt lat="59.4143671" lon="17.765036">
        <ele>26</ele>
        <time>2012-05-02T19:26:45Z</time>
      </trkpt>
      <trkpt lat="59.4146822" lon="17.7644938">
        <ele>22.6</ele>
        <time>2012-05-02T19:26:49Z</time>
      </trkpt>
      <trkpt lat="59.415061" lon="17.7640369">
        <ele>20</ele>
        <time>2012-05-02T19:26:53Z</time>
      </trkpt>
      <trkpt lat="59.4151805" lon="17.7640126">
        <ele>19.6</ele>
        <time>2012-05-02T19:26:54Z</time>
      </trkpt>
      <trkpt lat="59.4154981" lon="17.7640628">
        <ele>19.4</ele>
        <time>2012-05-02T19:26:57Z</time>
      </trkpt>
      <trkpt lat="59.415597" lon="17.7640903">
        <ele>19.6</ele>
        <time>2012-05-02T19:26:58Z</time>
      </trkpt>
      <trkpt lat="59.4158785" lon="17.7641348">
        <ele>19.6</ele>
        <time>2012-05-02T19:27:01Z</time>
      </trkpt>
      <trkpt lat="59.4160545" lon="17.7641099">
        <ele>18.8</ele>
        <time>2012-05-02T19:27:03Z</time>
      </trkpt>
      <trkpt lat="59.4163009" lon="17.7639723">
        <ele>16.8</ele>
        <time>2012-05-02T19:27:06Z</time>
      </trkpt>
      <trkpt lat="59.4166518" lon="17.763677">
        <ele>12.8</ele>
        <time>2012-05-02T19:27:12Z</time>
      </trkpt>
      <trkpt lat="59.4167569" lon="17.7635371">
        <ele>10.6</ele>
        <time>2012-05-02T19:27:16Z</time>
      </trkpt>
      <trkpt lat="59.4166822" lon="17.7636044">
        <ele>12.4</ele>
        <time>2012-05-02T19:27:22Z</time>
      </trkpt>
      <trkpt lat="59.4165502" lon="17.763755">
        <ele>13.2</ele>
        <time>2012-05-02T19:27:27Z</time>
      </trkpt>
      <trkpt lat="59.4161962" lon="17.7640333">
        <ele>15.4</ele>
        <time>2012-05-02T19:27:35Z</time>
      </trkpt>
      <trkpt lat="59.4160246" lon="17.7641312">
        <ele>19.4</ele>
        <time>2012-05-02T19:27:39Z</time>
      </trkpt>
      <trkpt lat="59.4158541" lon="17.7641226">
        <ele>20.6</ele>
        <time>2012-05-02T19:27:42Z</time>
      </trkpt>
      <trkpt lat="59.4157261" lon="17.7641028">
        <ele>21</ele>
        <time>2012-05-02T19:27:44Z</time>
      </trkpt>
      <trkpt lat="59.4154838" lon="17.7640545">
        <ele>21.4</ele>
        <time>2012-05-02T19:27:48Z</time>
      </trkpt>
      <trkpt lat="59.4151615" lon="17.7640305">
        <ele>22.4</ele>
        <time>2012-05-02T19:27:53Z</time>
      </trkpt>
      <trkpt lat="59.4150967" lon="17.7640454">
        <ele>22.6</ele>
        <time>2012-05-02T19:27:54Z</time>
      </trkpt>
      <trkpt lat="59.4149335" lon="17.7641524">
        <ele>23.6</ele>
        <time>2012-05-02T19:27:57Z</time>
      </trkpt>
      <trkpt lat="59.414776" lon="17.7643483">
        <ele>26.4</ele>
        <time>2012-05-02T19:28:01Z</time>
      </trkpt>
      <trkpt lat="59.414745" lon="17.7644011">
        <ele>27.2</ele>
        <time>2012-05-02T19:28:02Z</time>
      </trkpt>
      <trkpt lat="59.4146372" lon="17.7645622">
        <ele>27.8</ele>
        <time>2012-05-02T19:28:05Z</time>
      </trkpt>
      <trkpt lat="59.4144506" lon="17.7648673">
        <ele>28</ele>
        <time>2012-05-02T19:28:10Z</time>
      </trkpt>
      <trkpt lat="59.414142" lon="17.7653175">
        <ele>31.6</ele>
        <time>2012-05-02T19:28:19Z</time>
      </trkpt>
      <trkpt lat="59.4140675" lon="17.7653965">
        <ele>32.4</ele>
        <time>2012-05-02T19:28:21Z</time>
      </trkpt>
      <trkpt lat="59.4138151" lon="17.7656054">
        <ele>35.2</ele>
        <time>2012-05-02T19:28:27Z</time>
      </trkpt>
      <trkpt lat="59.4134395" lon="17.7658354">
        <ele>37.6</ele>
        <time>2012-05-02T19:28:35Z</time>
      </trkpt>
      <trkpt lat="59.4131055" lon="17.7661176">
        <ele>38</ele>
        <time>2012-05-02T19:28:41Z</time>
      </trkpt>
      <trkpt lat="59.412765" lon="17.7664633">
        <ele>39</ele>
        <time>2012-05-02T19:28:47Z</time>
      </trkpt>
      <trkpt lat="59.4125144" lon="17.7666401">
        <ele>41.2</ele>
        <time>2012-05-02T19:28:51Z</time>
      </trkpt>
      <trkpt lat="59.4123941" lon="17.7667224">
        <ele>41.6</ele>
        <time>2012-05-02T19:28:53Z</time>
      </trkpt>
      <trkpt lat="59.4120995" lon="17.7669454">
        <ele>42</ele>
        <time>2012-05-02T19:28:58Z</time>
      </trkpt>
      <trkpt lat="59.4120423" lon="17.7669994">
        <ele>42.2</ele>
        <time>2012-05-02T19:28:59Z</time>
      </trkpt>
      <trkpt lat="59.411709" lon="17.7673221">
        <ele>42</ele>
        <time>2012-05-02T19:29:05Z</time>
      </trkpt>
      <trkpt lat="59.411387" lon="17.7676305">
        <ele>42.2</ele>
        <time>2012-05-02T19:29:11Z</time>
      </trkpt>
      <trkpt lat="59.4113383" lon="17.7676773">
        <ele>42</ele>
        <time>2012-05-02T19:29:12Z</time>
      </trkpt>
      <trkpt lat="59.4109933" lon="17.7680402">
        <ele>42.4</ele>
        <time>2012-05-02T19:29:19Z</time>
      </trkpt>
      <trkpt lat="59.4108365" lon="17.7682016">
        <ele>43.4</ele>
        <time>2012-05-02T19:29:22Z</time>
      </trkpt>
      <trkpt lat="59.4106927" lon="17.7683891">
        <ele>44.6</ele>
        <time>2012-05-02T19:29:25Z</time>
      </trkpt>
      <trkpt lat="59.4106615" lon="17.7684768">
        <ele>44.6</ele>
        <time>2012-05-02T19:29:26Z</time>
      </trkpt>
      <trkpt lat="59.4106159" lon="17.768897">
        <ele>47</ele>
        <time>2012-05-02T19:29:30Z</time>
      </trkpt>
      <trkpt lat="59.4105973" lon="17.7692067">
        <ele>48.8</ele>
        <time>2012-05-02T19:29:33Z</time>
      </trkpt>
      <trkpt lat="59.410559" lon="17.7699179">
        <ele>52.4</ele>
        <time>2012-05-02T19:29:40Z</time>
      </trkpt>
      <trkpt lat="59.4105728" lon="17.7705317">
        <ele>54.8</ele>
        <time>2012-05-02T19:29:46Z</time>
      </trkpt>
      <trkpt lat="59.4105808" lon="17.7706296">
        <ele>55</ele>
        <time>2012-05-02T19:29:47Z</time>
      </trkpt>
      <trkpt lat="59.4106297" lon="17.7713824">
        <ele>57</ele>
        <time>2012-05-02T19:29:55Z</time>
      </trkpt>
      <trkpt lat="59.4106506" lon="17.7717735">
        <ele>57.8</ele>
        <time>2012-05-02T19:29:59Z</time>
      </trkpt>
      <trkpt lat="59.4106641" lon="17.772089">
        <ele>57.6</ele>
        <time>2012-05-02T19:30:02Z</time>
      </trkpt>
      <trkpt lat="59.4106647" lon="17.7722023">
        <ele>57.8</ele>
        <time>2012-05-02T19:30:03Z</time>
      </trkpt>
      <trkpt lat="59.4106325" lon="17.772787">
        <ele>59.6</ele>
        <time>2012-05-02T19:30:08Z</time>
      </trkpt>
      <trkpt lat="59.4105766" lon="17.7730826">
        <ele>61</ele>
        <time>2012-05-02T19:30:11Z</time>
      </trkpt>
      <trkpt lat="59.4105295" lon="17.7732687">
        <ele>61.6</ele>
        <time>2012-05-02T19:30:13Z</time>
      </trkpt>
      <trkpt lat="59.4104749" lon="17.7734518">
        <ele>62.4</ele>
        <time>2012-05-02T19:30:15Z</time>
      </trkpt>
      <trkpt lat="59.4104408" lon="17.7735336">
        <ele>63.2</ele>
        <time>2012-05-02T19:30:16Z</time>
      </trkpt>
      <trkpt lat="59.4102306" lon="17.7740553">
        <ele>66.4</ele>
        <time>2012-05-02T19:30:22Z</time>
      </trkpt>
      <trkpt lat="59.4100471" lon="17.7747608">
        <ele>63.8</ele>
        <time>2012-05-02T19:30:29Z</time>
      </trkpt>
      <trkpt lat="59.4099482" lon="17.7755012">
        <ele>61.2</ele>
        <time>2012-05-02T19:30:35Z</time>
      </trkpt>
      <trkpt lat="59.4098762" lon="17.7762268">
        <ele>62.6</ele>
        <time>2012-05-02T19:30:41Z</time>
      </trkpt>
      <trkpt lat="59.4097776" lon="17.7769995">
        <ele>70</ele>
        <time>2012-05-02T19:30:48Z</time>
      </trkpt>
      <trkpt lat="59.4097465" lon="17.7778046">
        <ele>70.8</ele>
        <time>2012-05-02T19:30:54Z</time>
      </trkpt>
      <trkpt lat="59.409652" lon="17.77852">
        <ele>69.4</ele>
        <time>2012-05-02T19:31:00Z</time>
      </trkpt>
      <trkpt lat="59.4095412" lon="17.7792939">
        <ele>68.8</ele>
        <time>2012-05-02T19:31:06Z</time>
      </trkpt>
      <trkpt lat="59.4094605" lon="17.7800994">
        <ele>70.2</ele>
        <time>2012-05-02T19:31:12Z</time>
      </trkpt>
      <trkpt lat="59.4094012" lon="17.7808857">
        <ele>70.4</ele>
        <time>2012-05-02T19:31:18Z</time>
      </trkpt>
      <trkpt lat="59.4093654" lon="17.7812388">
        <ele>72</ele>
        <time>2012-05-02T19:31:21Z</time>
      </trkpt>
      <trkpt lat="59.4093432" lon="17.7816378">
        <ele>74.8</ele>
        <time>2012-05-02T19:31:26Z</time>
      </trkpt>
      <trkpt lat="59.4093516" lon="17.7816391">
        <ele>75.2</ele>
        <time>2012-05-02T19:31:27Z</time>
      </trkpt>
      <trkpt lat="59.4093458" lon="17.7815212">
        <ele>73</ele>
        <time>2012-05-02T19:31:31Z</time>
      </trkpt>
      <trkpt lat="59.4093706" lon="17.7809412">
        <ele>66.2</ele>
        <time>2012-05-02T19:31:42Z</time>
      </trkpt>
      <trkpt lat="59.4094188" lon="17.7802845">
        <ele>66.2</ele>
        <time>2012-05-02T19:31:49Z</time>
      </trkpt>
      <trkpt lat="59.4094297" lon="17.7801845">
        <ele>66.2</ele>
        <time>2012-05-02T19:31:50Z</time>
      </trkpt>
      <trkpt lat="59.4095047" lon="17.7793887">
        <ele>64.4</ele>
        <time>2012-05-02T19:31:57Z</time>
      </trkpt>
      <trkpt lat="59.4096149" lon="17.7786481">
        <ele>63.8</ele>
        <time>2012-05-02T19:32:03Z</time>
      </trkpt>
      <trkpt lat="59.4097363" lon="17.7779838">
        <ele>62.8</ele>
        <time>2012-05-02T19:32:08Z</time>
      </trkpt>
      <trkpt lat="59.4098089" lon="17.7772696">
        <ele>61.4</ele>
        <time>2012-05-02T19:32:13Z</time>
      </trkpt>
      <trkpt lat="59.4098367" lon="17.7765583">
        <ele>60</ele>
        <time>2012-05-02T19:32:18Z</time>
      </trkpt>
      <trkpt lat="59.4099001" lon="17.7758405">
        <ele>59.2</ele>
        <time>2012-05-02T19:32:23Z</time>
      </trkpt>
      <trkpt lat="59.4100098" lon="17.7750921">
        <ele>59.6</ele>
        <time>2012-05-02T19:32:28Z</time>
      </trkpt>
      <trkpt lat="59.4101068" lon="17.7746516">
        <ele>59.6</ele>
        <time>2012-05-02T19:32:31Z</time>
      </trkpt>
      <trkpt lat="59.410185" lon="17.7743749">
        <ele>59.4</ele>
        <time>2012-05-02T19:32:33Z</time>
      </trkpt>
      <trkpt lat="59.4103958" lon="17.7736818">
        <ele>57.8</ele>
        <time>2012-05-02T19:32:38Z</time>
      </trkpt>
      <trkpt lat="59.4105715" lon="17.7730669">
        <ele>55.6</ele>
        <time>2012-05-02T19:32:42Z</time>
      </trkpt>
      <trkpt lat="59.410662" lon="17.7723467">
        <ele>53.8</ele>
        <time>2012-05-02T19:32:46Z</time>
      </trkpt>
      <trkpt lat="59.410643" lon="17.771592">
        <ele>50.6</ele>
        <time>2012-05-02T19:32:50Z</time>
      </trkpt>
      <trkpt lat="59.4105733" lon="17.7707465">
        <ele>48</ele>
        <time>2012-05-02T19:32:54Z</time>
      </trkpt>
      <trkpt lat="59.4105313" lon="17.7703168">
        <ele>46.4</ele>
        <time>2012-05-02T19:32:56Z</time>
      </trkpt>
      <trkpt lat="59.410536" lon="17.7698807">
        <ele>45.2</ele>
        <time>2012-05-02T19:32:58Z</time>
      </trkpt>
      <trkpt lat="59.410576" lon="17.7690573">
        <ele>42.4</ele>
        <time>2012-05-02T19:33:02Z</time>
      </trkpt>
      <trkpt lat="59.410623" lon="17.7686986">
        <ele>41</ele>
        <time>2012-05-02T19:33:04Z</time>
      </trkpt>
      <trkpt lat="59.4107226" lon="17.7683606">
        <ele>40</ele>
        <time>2012-05-02T19:33:06Z</time>
      </trkpt>
      <trkpt lat="59.411078" lon="17.7679334">
        <ele>38.8</ele>
        <time>2012-05-02T19:33:10Z</time>
      </trkpt>
      <trkpt lat="59.4114675" lon="17.7675703">
        <ele>36</ele>
        <time>2012-05-02T19:33:14Z</time>
      </trkpt>
      <trkpt lat="59.4118558" lon="17.7672396">
        <ele>33</ele>
        <time>2012-05-02T19:33:18Z</time>
      </trkpt>
      <trkpt lat="59.4122104" lon="17.7669289">
        <ele>30.2</ele>
        <time>2012-05-02T19:33:22Z</time>
      </trkpt>
      <trkpt lat="59.4126298" lon="17.7666385">
        <ele>28.6</ele>
        <time>2012-05-02T19:33:27Z</time>
      </trkpt>
      <trkpt lat="59.4130276" lon="17.7662459">
        <ele>26.6</ele>
        <time>2012-05-02T19:33:32Z</time>
      </trkpt>
      <trkpt lat="59.4133566" lon="17.7659505">
        <ele>25.8</ele>
        <time>2012-05-02T19:33:36Z</time>
      </trkpt>
      <trkpt lat="59.4137639" lon="17.7657051">
        <ele>25.2</ele>
        <time>2012-05-02T19:33:41Z</time>
      </trkpt>
      <trkpt lat="59.4141356" lon="17.7653593">
        <ele>22.8</ele>
        <time>2012-05-02T19:33:46Z</time>
      </trkpt>
      <trkpt lat="59.4144098" lon="17.764915">
        <ele>21.2</ele>
        <time>2012-05-02T19:33:50Z</time>
      </trkpt>
      <trkpt lat="59.4147129" lon="17.7644163">
        <ele>18.2</ele>
        <time>2012-05-02T19:33:54Z</time>
      </trkpt>
      <trkpt lat="59.4148903" lon="17.7641914">
        <ele>16.8</ele>
        <time>2012-05-02T19:33:56Z</time>
      </trkpt>
      <trkpt lat="59.4151003" lon="17.7640539">
        <ele>15.8</ele>
        <time>2012-05-02T19:33:58Z</time>
      </trkpt>
      <trkpt lat="59.4154225" lon="17.7640774">
        <ele>15.8</ele>
        <time>2012-05-02T19:34:01Z</time>
      </trkpt>
      <trkpt lat="59.4155224" lon="17.7641074">
        <ele>16</ele>
        <time>2012-05-02T19:34:02Z</time>
      </trkpt>
      <trkpt lat="59.4159425" lon="17.7641452">
        <ele>15.6</ele>
        <time>2012-05-02T19:34:07Z</time>
      </trkpt>
      <trkpt lat="59.4163555" lon="17.7639386">
        <ele>10.8</ele>
        <time>2012-05-02T19:34:13Z</time>
      </trkpt>
      <trkpt lat="59.4166087" lon="17.7637289">
        <ele>5.4</ele>
        <time>2012-05-02T19:34:18Z</time>
      </trkpt>
      <trkpt lat="59.416722" lon="17.7635819">
        <ele>4.6</ele>
        <time>2012-05-02T19:34:22Z</time>
      </trkpt>
      <trkpt lat="59.416717" lon="17.7635403">
        <ele>6.2</ele>
        <time>2012-05-02T19:34:28Z</time>
      </trkpt>
      <trkpt lat="59.4166942" lon="17.7635831">
        <ele>7.4</ele>
        <time>2012-05-02T19:34:32Z</time>
      </trkpt>
      <trkpt lat="59.4164819" lon="17.7638237">
        <ele>9.6</ele>
        <time>2012-05-02T19:34:41Z</time>
      </trkpt>
      <trkpt lat="59.4161269" lon="17.7640712">
        <ele>13.6</ele>
        <time>2012-05-02T19:34:49Z</time>
      </trkpt>
      <trkpt lat="59.416084" lon="17.7640987">
        <ele>14.8</ele>
        <time>2012-05-02T19:34:50Z</time>
      </trkpt>
      <trkpt lat="59.4157681" lon="17.7641322">
        <ele>16.6</ele>
        <time>2012-05-02T19:34:56Z</time>
      </trkpt>
      <trkpt lat="59.4153874" lon="17.7640596">
        <ele>18.4</ele>
        <time>2012-05-02T19:35:02Z</time>
      </trkpt>
      <trkpt lat="59.4152526" lon="17.7640414">
        <ele>18.8</ele>
        <time>2012-05-02T19:35:04Z</time>
      </trkpt>
      <trkpt lat="59.4149941" lon="17.7641178">
        <ele>19.8</ele>
        <time>2012-05-02T19:35:08Z</time>
      </trkpt>
      <trkpt lat="59.414878" lon="17.7642042">
        <ele>21.2</ele>
        <time>2012-05-02T19:35:10Z</time>
      </trkpt>
      <trkpt lat="59.4146461" lon="17.7645134">
        <ele>25.2</ele>
        <time>2012-05-02T19:35:15Z</time>
      </trkpt>
      <trkpt lat="59.4145671" lon="17.7646394">
        <ele>26</ele>
        <time>2012-05-02T19:35:17Z</time>
      </trkpt>
      <trkpt lat="59.4144688" lon="17.7648311">
        <ele>26.6</ele>
        <time>2012-05-02T19:35:20Z</time>
      </trkpt>
      <trkpt lat="59.4143663" lon="17.7649967">
        <ele>27.6</ele>
        <time>2012-05-02T19:35:23Z</time>
      </trkpt>
      <trkpt lat="59.4143337" lon="17.7650495">
        <ele>28</ele>
        <time>2012-05-02T19:35:24Z</time>
      </trkpt>
      <trkpt lat="59.414269" lon="17.7651445">
        <ele>28</ele>
        <time>2012-05-02T19:35:26Z</time>
      </trkpt>
      <trkpt lat="59.4140567" lon="17.7654123">
        <ele>28</ele>
        <time>2012-05-02T19:35:31Z</time>
      </trkpt>
      <trkpt lat="59.4136824" lon="17.7657283">
        <ele>32.6</ele>
        <time>2012-05-02T19:35:39Z</time>
      </trkpt>
      <trkpt lat="59.4133179" lon="17.7659656">
        <ele>34.8</ele>
        <time>2012-05-02T19:35:46Z</time>
      </trkpt>
      <trkpt lat="59.4129471" lon="17.7663188">
        <ele>37.4</ele>
        <time>2012-05-02T19:35:52Z</time>
      </trkpt>
      <trkpt lat="59.4125698" lon="17.766644">
        <ele>39.8</ele>
        <time>2012-05-02T19:35:58Z</time>
      </trkpt>
      <trkpt lat="59.4121798" lon="17.7669395">
        <ele>41</ele>
        <time>2012-05-02T19:36:04Z</time>
      </trkpt>
      <trkpt lat="59.4118094" lon="17.7672634">
        <ele>43.8</ele>
        <time>2012-05-02T19:36:10Z</time>
      </trkpt>
      <trkpt lat="59.4114261" lon="17.7675998">
        <ele>46.8</ele>
        <time>2012-05-02T19:36:17Z</time>
      </trkpt>
      <trkpt lat="59.4110645" lon="17.7679591">
        <ele>44</ele>
        <time>2012-05-02T19:36:24Z</time>
      </trkpt>
      <trkpt lat="59.4108148" lon="17.7682402">
        <ele>45.4</ele>
        <time>2012-05-02T19:36:29Z</time>
      </trkpt>
      <trkpt lat="59.410725" lon="17.768396">
        <ele>45</ele>
        <time>2012-05-02T19:36:31Z</time>
      </trkpt>
      <trkpt lat="59.4106372" lon="17.7689891">
        <ele>46.8</ele>
        <time>2012-05-02T19:36:37Z</time>
      </trkpt>
      <trkpt lat="59.4106308" lon="17.7690983">
        <ele>46.8</ele>
        <time>2012-05-02T19:36:38Z</time>
      </trkpt>
      <trkpt lat="59.4105761" lon="17.7698926">
        <ele>49.6</ele>
        <time>2012-05-02T19:36:45Z</time>
      </trkpt>
      <trkpt lat="59.4105968" lon="17.7706311">
        <ele>53</ele>
        <time>2012-05-02T19:36:52Z</time>
      </trkpt>
      <trkpt lat="59.4106461" lon="17.7711143">
        <ele>56</ele>
        <time>2012-05-02T19:36:57Z</time>
      </trkpt>
      <trkpt lat="59.410661" lon="17.7712922">
        <ele>57.2</ele>
        <time>2012-05-02T19:36:59Z</time>
      </trkpt>
      <trkpt lat="59.4106655" lon="17.7713735">
        <ele>57.6</ele>
        <time>2012-05-02T19:37:00Z</time>
      </trkpt>
      <trkpt lat="59.4106743" lon="17.7716582">
        <ele>57.8</ele>
        <time>2012-05-02T19:37:03Z</time>
      </trkpt>
      <trkpt lat="59.4106781" lon="17.7717482">
        <ele>57.4</ele>
        <time>2012-05-02T19:37:04Z</time>
      </trkpt>
      <trkpt lat="59.4106802" lon="17.7721427">
        <ele>56.8</ele>
        <time>2012-05-02T19:37:08Z</time>
      </trkpt>
      <trkpt lat="59.410665" lon="17.7724643">
        <ele>57.4</ele>
        <time>2012-05-02T19:37:11Z</time>
      </trkpt>
      <trkpt lat="59.4106247" lon="17.7728778">
        <ele>57.6</ele>
        <time>2012-05-02T19:37:15Z</time>
      </trkpt>
      <trkpt lat="59.4105905" lon="17.7730577">
        <ele>57.8</ele>
        <time>2012-05-02T19:37:17Z</time>
      </trkpt>
      <trkpt lat="59.4104393" lon="17.7735684">
        <ele>59.6</ele>
        <time>2012-05-02T19:37:23Z</time>
      </trkpt>
      <trkpt lat="59.4102185" lon="17.774192">
        <ele>61.4</ele>
        <time>2012-05-02T19:37:30Z</time>
      </trkpt>
      <trkpt lat="59.4100457" lon="17.7748251">
        <ele>62.4</ele>
        <time>2012-05-02T19:37:36Z</time>
      </trkpt>
      <trkpt lat="59.4098995" lon="17.7755684">
        <ele>65.6</ele>
        <time>2012-05-02T19:37:42Z</time>
      </trkpt>
      <trkpt lat="59.4098336" lon="17.776361">
        <ele>65.6</ele>
        <time>2012-05-02T19:37:48Z</time>
      </trkpt>
      <trkpt lat="59.4098082" lon="17.7771526">
        <ele>68</ele>
        <time>2012-05-02T19:37:54Z</time>
      </trkpt>
      <trkpt lat="59.4097892" lon="17.7779678">
        <ele>69.6</ele>
        <time>2012-05-02T19:38:00Z</time>
      </trkpt>
      <trkpt lat="59.4096792" lon="17.7786645">
        <ele>68.8</ele>
        <time>2012-05-02T19:38:05Z</time>
      </trkpt>
      <trkpt lat="59.4095581" lon="17.7793802">
        <ele>69.2</ele>
        <time>2012-05-02T19:38:10Z</time>
      </trkpt>
      <trkpt lat="59.409472" lon="17.7800985">
        <ele>70.2</ele>
        <time>2012-05-02T19:38:15Z</time>
      </trkpt>
      <trkpt lat="59.4093974" lon="17.780899">
        <ele>73.2</ele>
        <time>2012-05-02T19:38:21Z</time>
      </trkpt>
      <trkpt lat="59.4093469" lon="17.7817001">
        <ele>73.8</ele>
        <time>2012-05-02T19:38:29Z</time>
      </trkpt>
      <trkpt lat="59.4093459" lon="17.7817457">
        <ele>73.6</ele>
        <time>2012-05-02T19:38:30Z</time>
      </trkpt>
      <trkpt lat="59.4093599" lon="17.7816567">
        <ele>72.2</ele>
        <time>2012-05-02T19:38:34Z</time>
      </trkpt>
      <trkpt lat="59.4093604" lon="17.7811058">
        <ele>70.8</ele>
        <time>2012-05-02T19:38:43Z</time>
      </trkpt>
      <trkpt lat="59.4094011" lon="17.7803817">
        <ele>68.8</ele>
        <time>2012-05-02T19:38:51Z</time>
      </trkpt>
      <trkpt lat="59.4094701" lon="17.7796383">
        <ele>66</ele>
        <time>2012-05-02T19:38:58Z</time>
      </trkpt>
      <trkpt lat="59.409568" lon="17.7788646">
        <ele>62.6</ele>
        <time>2012-05-02T19:39:04Z</time>
      </trkpt>
      <trkpt lat="59.4096865" lon="17.7781833">
        <ele>61.2</ele>
        <time>2012-05-02T19:39:09Z</time>
      </trkpt>
      <trkpt lat="59.4097853" lon="17.7773824">
        <ele>61.4</ele>
        <time>2012-05-02T19:39:15Z</time>
      </trkpt>
      <trkpt lat="59.4098114" lon="17.7766137">
        <ele>59.8</ele>
        <time>2012-05-02T19:39:21Z</time>
      </trkpt>
      <trkpt lat="59.4098462" lon="17.7758699">
        <ele>58.4</ele>
        <time>2012-05-02T19:39:27Z</time>
      </trkpt>
      <trkpt lat="59.4099222" lon="17.7752389">
        <ele>57.2</ele>
        <time>2012-05-02T19:39:32Z</time>
      </trkpt>
      <trkpt lat="59.4099508" lon="17.7750923">
        <ele>57.2</ele>
        <time>2012-05-02T19:39:33Z</time>
      </trkpt>
      <trkpt lat="59.4101195" lon="17.774471">
        <ele>57</ele>
        <time>2012-05-02T19:39:37Z</time>
      </trkpt>
      <trkpt lat="59.4103399" lon="17.7738301">
        <ele>55.6</ele>
        <time>2012-05-02T19:39:41Z</time>
      </trkpt>
      <trkpt lat="59.4105541" lon="17.7731207">
        <ele>53.6</ele>
        <time>2012-05-02T19:39:45Z</time>
      </trkpt>
      <trkpt lat="59.4106315" lon="17.772725">
        <ele>52.4</ele>
        <time>2012-05-02T19:39:47Z</time>
      </trkpt>
      <trkpt lat="59.4106724" lon="17.772314">
        <ele>51</ele>
        <time>2012-05-02T19:39:49Z</time>
      </trkpt>
      <trkpt lat="59.4106577" lon="17.7716814">
        <ele>47.4</ele>
        <time>2012-05-02T19:39:52Z</time>
      </trkpt>
      <trkpt lat="59.4106453" lon="17.7714593">
        <ele>46.4</ele>
        <time>2012-05-02T19:39:53Z</time>
      </trkpt>
      <trkpt lat="59.4105824" lon="17.770539">
        <ele>43.2</ele>
        <time>2012-05-02T19:39:57Z</time>
      </trkpt>
      <trkpt lat="59.4105702" lon="17.7698375">
        <ele>41.8</ele>
        <time>2012-05-02T19:40:00Z</time>
      </trkpt>
      <trkpt lat="59.4105915" lon="17.7689741">
        <ele>40.8</ele>
        <time>2012-05-02T19:40:04Z</time>
      </trkpt>
      <trkpt lat="59.4106101" lon="17.768786">
        <ele>40.2</ele>
        <time>2012-05-02T19:40:05Z</time>
      </trkpt>
      <trkpt lat="59.4107459" lon="17.7682392">
        <ele>40.4</ele>
        <time>2012-05-02T19:40:08Z</time>
      </trkpt>
      <trkpt lat="59.4111579" lon="17.7678314">
        <ele>36.2</ele>
        <time>2012-05-02T19:40:12Z</time>
      </trkpt>
      <trkpt lat="59.4115228" lon="17.7675272">
        <ele>33.2</ele>
        <time>2012-05-02T19:40:15Z</time>
      </trkpt>
      <trkpt lat="59.4118602" lon="17.7672347">
        <ele>33</ele>
        <time>2012-05-02T19:40:18Z</time>
      </trkpt>
      <trkpt lat="59.4122977" lon="17.7668631">
        <ele>33.2</ele>
        <time>2012-05-02T19:40:22Z</time>
      </trkpt>
      <trkpt lat="59.4127008" lon="17.7665571">
        <ele>31.8</ele>
        <time>2012-05-02T19:40:26Z</time>
      </trkpt>
      <trkpt lat="59.413079" lon="17.7661397">
        <ele>29.8</ele>
        <time>2012-05-02T19:40:30Z</time>
      </trkpt>
      <trkpt lat="59.4134578" lon="17.7658591">
        <ele>28</ele>
        <time>2012-05-02T19:40:34Z</time>
      </trkpt>
      <trkpt lat="59.4138218" lon="17.7656659">
        <ele>27.2</ele>
        <time>2012-05-02T19:40:38Z</time>
      </trkpt>
      <trkpt lat="59.4141616" lon="17.7653169">
        <ele>25</ele>
        <time>2012-05-02T19:40:42Z</time>
      </trkpt>
      <trkpt lat="59.4144738" lon="17.7648441">
        <ele>21</ele>
        <time>2012-05-02T19:40:46Z</time>
      </trkpt>
      <trkpt lat="59.4148196" lon="17.7643094">
        <ele>17</ele>
        <time>2012-05-02T19:40:50Z</time>
      </trkpt>
      <trkpt lat="59.4150133" lon="17.7641002">
        <ele>16.2</ele>
        <time>2012-05-02T19:40:52Z</time>
      </trkpt>
      <trkpt lat="59.4152361" lon="17.7639966">
        <ele>15.4</ele>
        <time>2012-05-02T19:40:54Z</time>
      </trkpt>
      <trkpt lat="59.4155774" lon="17.7640851">
        <ele>15.2</ele>
        <time>2012-05-02T19:40:57Z</time>
      </trkpt>
      <trkpt lat="59.4156727" lon="17.7641111">
        <ele>15.4</ele>
        <time>2012-05-02T19:40:58Z</time>
      </trkpt>
      <trkpt lat="59.4159405" lon="17.7641487">
        <ele>15.8</ele>
        <time>2012-05-02T19:41:01Z</time>
      </trkpt>
      <trkpt lat="59.4160931" lon="17.7641038">
        <ele>14.6</ele>
        <time>2012-05-02T19:41:03Z</time>
      </trkpt>
      <trkpt lat="59.4162115" lon="17.764011">
        <ele>13.2</ele>
        <time>2012-05-02T19:41:05Z</time>
      </trkpt>
      <trkpt lat="59.4164618" lon="17.7638319">
        <ele>9.4</ele>
        <time>2012-05-02T19:41:10Z</time>
      </trkpt>
      <trkpt lat="59.4166424" lon="17.7636646">
        <ele>7.4</ele>
        <time>2012-05-02T19:41:15Z</time>
      </trkpt>
      <trkpt lat="59.4167564" lon="17.7635025">
        <ele>7</ele>
        <time>2012-05-02T19:41:20Z</time>
      </trkpt>
      <trkpt lat="59.4167346" lon="17.7634844">
        <ele>6.4</ele>
        <time>2012-05-02T19:41:22Z</time>
      </trkpt>
      <trkpt lat="59.4165267" lon="17.7637574">
        <ele>7.6</ele>
        <time>2012-05-02T19:41:31Z</time>
      </trkpt>
      <trkpt lat="59.4164161" lon="17.76385">
        <ele>8.6</ele>
        <time>2012-05-02T19:41:33Z</time>
      </trkpt>
      <trkpt lat="59.4160445" lon="17.7641101">
        <ele>16.2</ele>
        <time>2012-05-02T19:41:40Z</time>
      </trkpt>
      <trkpt lat="59.4156499" lon="17.7640788">
        <ele>18.6</ele>
        <time>2012-05-02T19:41:47Z</time>
      </trkpt>
      <trkpt lat="59.4152848" lon="17.7640155">
        <ele>21</ele>
        <time>2012-05-02T19:41:53Z</time>
      </trkpt>
      <trkpt lat="59.4150947" lon="17.7640474">
        <ele>20.6</ele>
        <time>2012-05-02T19:41:56Z</time>
      </trkpt>
      <trkpt lat="59.4148948" lon="17.7641862">
        <ele>21.8</ele>
        <time>2012-05-02T19:42:00Z</time>
      </trkpt>
      <trkpt lat="59.4145948" lon="17.7646161">
        <ele>24.6</ele>
        <time>2012-05-02T19:42:08Z</time>
      </trkpt>
      <trkpt lat="59.4145321" lon="17.764715">
        <ele>24.6</ele>
        <time>2012-05-02T19:42:10Z</time>
      </trkpt>
      <trkpt lat="59.414362" lon="17.7649646">
        <ele>25.8</ele>
        <time>2012-05-02T19:42:15Z</time>
      </trkpt>
      <trkpt lat="59.4142903" lon="17.76506">
        <ele>26.4</ele>
        <time>2012-05-02T19:42:17Z</time>
      </trkpt>
      <trkpt lat="59.4142214" lon="17.7651574">
        <ele>26.8</ele>
        <time>2012-05-02T19:42:19Z</time>
      </trkpt>
      <trkpt lat="59.4141216" lon="17.765294">
        <ele>25.8</ele>
        <time>2012-05-02T19:42:22Z</time>
      </trkpt>
      <trkpt lat="59.413983" lon="17.7654683">
        <ele>25.4</ele>
        <time>2012-05-02T19:42:26Z</time>
      </trkpt>
      <trkpt lat="59.4138289" lon="17.7656319">
        <ele>24.2</ele>
        <time>2012-05-02T19:42:30Z</time>
      </trkpt>
      <trkpt lat="59.4136323" lon="17.765748">
        <ele>25.8</ele>
        <time>2012-05-02T19:42:34Z</time>
      </trkpt>
      <trkpt lat="59.4135338" lon="17.7657977">
        <ele>26.6</ele>
        <time>2012-05-02T19:42:36Z</time>
      </trkpt>
      <trkpt lat="59.4132768" lon="17.7659581">
        <ele>28.4</ele>
        <time>2012-05-02T19:42:41Z</time>
      </trkpt>
      <trkpt lat="59.4129212" lon="17.7662979">
        <ele>31.2</ele>
        <time>2012-05-02T19:42:48Z</time>
      </trkpt>
      <trkpt lat="59.412689" lon="17.7665509">
        <ele>32.6</ele>
        <time>2012-05-02T19:42:53Z</time>
      </trkpt>
      <trkpt lat="59.4125902" lon="17.7666247">
        <ele>33.2</ele>
        <time>2012-05-02T19:42:55Z</time>
      </trkpt>
      <trkpt lat="59.412233" lon="17.7668658">
        <ele>35</ele>
        <time>2012-05-02T19:43:02Z</time>
      </trkpt>
      <trkpt lat="59.4118881" lon="17.7671709">
        <ele>36.8</ele>
        <time>2012-05-02T19:43:09Z</time>
      </trkpt>
      <trkpt lat="59.4115419" lon="17.7674755">
        <ele>38.8</ele>
        <time>2012-05-02T19:43:16Z</time>
      </trkpt>
      <trkpt lat="59.4112349" lon="17.7677614">
        <ele>39.4</ele>
        <time>2012-05-02T19:43:23Z</time>
      </trkpt>
      <trkpt lat="59.4111959" lon="17.7678028">
        <ele>39.6</ele>
        <time>2012-05-02T19:43:24Z</time>
      </trkpt>
      <trkpt lat="59.4109986" lon="17.7680027">
        <ele>37.8</ele>
        <time>2012-05-02T19:43:29Z</time>
      </trkpt>
      <trkpt lat="59.4108522" lon="17.7681638">
        <ele>40.6</ele>
        <time>2012-05-02T19:43:32Z</time>
      </trkpt>
      <trkpt lat="59.4107587" lon="17.7682946">
        <ele>41.4</ele>
        <time>2012-05-02T19:43:34Z</time>
      </trkpt>
      <trkpt lat="59.410639" lon="17.7688137">
        <ele>44</ele>
        <time>2012-05-02T19:43:39Z</time>
      </trkpt>
      <trkpt lat="59.4106315" lon="17.7690426">
        <ele>44.6</ele>
        <time>2012-05-02T19:43:41Z</time>
      </trkpt>
      <trkpt lat="59.4105961" lon="17.7695823">
        <ele>46</ele>
        <time>2012-05-02T19:43:46Z</time>
      </trkpt>
      <trkpt lat="59.4105839" lon="17.7700174">
        <ele>45.8</ele>
        <time>2012-05-02T19:43:50Z</time>
      </trkpt>
      <trkpt lat="59.4106022" lon="17.7703316">
        <ele>45.6</ele>
        <time>2012-05-02T19:43:53Z</time>
      </trkpt>
      <trkpt lat="59.410595" lon="17.7710751">
        <ele>52.6</ele>
        <time>2012-05-02T19:44:02Z</time>
      </trkpt>
      <trkpt lat="59.4106233" lon="17.7715289">
        <ele>54.6</ele>
        <time>2012-05-02T19:44:08Z</time>
      </trkpt>
      <trkpt lat="59.4106433" lon="17.7718259">
        <ele>54.6</ele>
        <time>2012-05-02T19:44:12Z</time>
      </trkpt>
      <trkpt lat="59.4106355" lon="17.7723495">
        <ele>57</ele>
        <time>2012-05-02T19:44:18Z</time>
      </trkpt>
      <trkpt lat="59.4106309" lon="17.7725323">
        <ele>58.4</ele>
        <time>2012-05-02T19:44:20Z</time>
      </trkpt>
      <trkpt lat="59.41062" lon="17.7727179">
        <ele>58.2</ele>
        <time>2012-05-02T19:44:22Z</time>
      </trkpt>
      <trkpt lat="59.4104777" lon="17.773228">
        <ele>62</ele>
        <time>2012-05-02T19:44:29Z</time>
      </trkpt>
      <trkpt lat="59.4104175" lon="17.7734474">
        <ele>64.2</ele>
        <time>2012-05-02T19:44:32Z</time>
      </trkpt>
      <trkpt lat="59.41035" lon="17.7736859">
        <ele>65.4</ele>
        <time>2012-05-02T19:44:35Z</time>
      </trkpt>
      <trkpt lat="59.4102952" lon="17.7738572">
        <ele>65.4</ele>
        <time>2012-05-02T19:44:37Z</time>
      </trkpt>
      <trkpt lat="59.4101129" lon="17.7744902">
        <ele>64.2</ele>
        <time>2012-05-02T19:44:44Z</time>
      </trkpt>
      <trkpt lat="59.4099575" lon="17.7751172">
        <ele>64.8</ele>
        <time>2012-05-02T19:44:50Z</time>
      </trkpt>
      <trkpt lat="59.409844" lon="17.775894">
        <ele>65.8</ele>
        <time>2012-05-02T19:44:56Z</time>
      </trkpt>
      <trkpt lat="59.4097682" lon="17.7767074">
        <ele>67</ele>
        <time>2012-05-02T19:45:02Z</time>
      </trkpt>
      <trkpt lat="59.4097451" lon="17.7774304">
        <ele>68.2</ele>
        <time>2012-05-02T19:45:07Z</time>
      </trkpt>
      <trkpt lat="59.409666" lon="17.7781537">
        <ele>67.4</ele>
        <time>2012-05-02T19:45:12Z</time>
      </trkpt>
      <trkpt lat="59.4096022" lon="17.7785298">
        <ele>67.8</ele>
        <time>2012-05-02T19:45:15Z</time>
      </trkpt>
      <trkpt lat="59.4095294" lon="17.7788484">
        <ele>69.2</ele>
        <time>2012-05-02T19:45:18Z</time>
      </trkpt>
      <trkpt lat="59.4094676" lon="17.7792284">
        <ele>68.6</ele>
        <time>2012-05-02T19:45:21Z</time>
      </trkpt>
      <trkpt lat="59.4094189" lon="17.779644">
        <ele>68.4</ele>
        <time>2012-05-02T19:45:24Z</time>
      </trkpt>
      <trkpt lat="59.4093478" lon="17.7804127">
        <ele>70.8</ele>
        <time>2012-05-02T19:45:30Z</time>
      </trkpt>
      <trkpt lat="59.4093024" lon="17.7811598">
        <ele>71.8</ele>
        <time>2012-05-02T19:45:36Z</time>
      </trkpt>
      <trkpt lat="59.4093003" lon="17.7812758">
        <ele>71.8</ele>
        <time>2012-05-02T19:45:37Z</time>
      </trkpt>
      <trkpt lat="59.4093017" lon="17.7818817">
        <ele>71.4</ele>
        <time>2012-05-02T19:45:42Z</time>
      </trkpt>
      <trkpt lat="59.4093448" lon="17.7826696">
        <ele>70.2</ele>
        <time>2012-05-02T19:45:48Z</time>
      </trkpt>
      <trkpt lat="59.4095426" lon="17.7834029">
        <ele>68.8</ele>
        <time>2012-05-02T19:45:55Z</time>
      </trkpt>
      <trkpt lat="59.4096113" lon="17.7837193">
        <ele>68.8</ele>
        <time>2012-05-02T19:45:58Z</time>
      </trkpt>
      <trkpt lat="59.4096918" lon="17.7841667">
        <ele>70.2</ele>
        <time>2012-05-02T19:46:02Z</time>
      </trkpt>
      <trkpt lat="59.4097151" lon="17.7843963">
        <ele>70.6</ele>
        <time>2012-05-02T19:46:04Z</time>
      </trkpt>
      <trkpt lat="59.409718" lon="17.7848657">
        <ele>71.2</ele>
        <time>2012-05-02T19:46:08Z</time>
      </trkpt>
      <trkpt lat="59.4096203" lon="17.7855949">
        <ele>70.8</ele>
        <time>2012-05-02T19:46:14Z</time>
      </trkpt>
      <trkpt lat="59.4094917" lon="17.786372">
        <ele>70.6</ele>
        <time>2012-05-02T19:46:20Z</time>
      </trkpt>
      <trkpt lat="59.4093958" lon="17.7870583">
        <ele>70.4</ele>
        <time>2012-05-02T19:46:25Z</time>
      </trkpt>
      <trkpt lat="59.4092996" lon="17.7877989">
        <ele>69.8</ele>
        <time>2012-05-02T19:46:30Z</time>
      </trkpt>
      <trkpt lat="59.4092109" lon="17.7885814">
        <ele>68.6</ele>
        <time>2012-05-02T19:46:35Z</time>
      </trkpt>
      <trkpt lat="59.4091311" lon="17.7893784">
        <ele>67.6</ele>
        <time>2012-05-02T19:46:40Z</time>
      </trkpt>
      <trkpt lat="59.4090537" lon="17.790199">
        <ele>65.8</ele>
        <time>2012-05-02T19:46:45Z</time>
      </trkpt>
      <trkpt lat="59.4089983" lon="17.7908943">
        <ele>64</ele>
        <time>2012-05-02T19:46:49Z</time>
      </trkpt>
      <trkpt lat="59.4089513" lon="17.7916158">
        <ele>62.2</ele>
        <time>2012-05-02T19:46:53Z</time>
      </trkpt>
      <trkpt lat="59.4089059" lon="17.7923724">
        <ele>60.4</ele>
        <time>2012-05-02T19:46:57Z</time>
      </trkpt>
      <trkpt lat="59.4088604" lon="17.7931743">
        <ele>58.4</ele>
        <time>2012-05-02T19:47:01Z</time>
      </trkpt>
      <trkpt lat="59.4088252" lon="17.7940106">
        <ele>56.8</ele>
        <time>2012-05-02T19:47:05Z</time>
      </trkpt>
      <trkpt lat="59.4087957" lon="17.7948498">
        <ele>55.2</ele>
        <time>2012-05-02T19:47:09Z</time>
      </trkpt>
      <trkpt lat="59.4087766" lon="17.795659">
        <ele>53.4</ele>
        <time>2012-05-02T19:47:13Z</time>
      </trkpt>
      <trkpt lat="59.4087833" lon="17.7958563">
        <ele>52.8</ele>
        <time>2012-05-02T19:47:14Z</time>
      </trkpt>
      <trkpt lat="59.408863" lon="17.796411">
        <ele>51.2</ele>
        <time>2012-05-02T19:47:17Z</time>
      </trkpt>
      <trkpt lat="59.40888" lon="17.796579">
        <ele>50.6</ele>
        <time>2012-05-02T19:47:18Z</time>
      </trkpt>
      <trkpt lat="59.4088739" lon="17.79701">
        <ele>49.6</ele>
        <time>2012-05-02T19:47:21Z</time>
      </trkpt>
      <trkpt lat="59.4089094" lon="17.7972368">
        <ele>49</ele>
        <time>2012-05-02T19:47:23Z</time>
      </trkpt>
      <trkpt lat="59.4092389" lon="17.7971119">
        <ele>48</ele>
        <time>2012-05-02T19:47:28Z</time>
      </trkpt>
      <trkpt lat="59.4095773" lon="17.7969382">
        <ele>45</ele>
        <time>2012-05-02T19:47:32Z</time>
      </trkpt>
      <trkpt lat="59.4099957" lon="17.7968612">
        <ele>42.8</ele>
        <time>2012-05-02T19:47:36Z</time>
      </trkpt>
      <trkpt lat="59.410457" lon="17.7967598">
        <ele>41</ele>
        <time>2012-05-02T19:47:40Z</time>
      </trkpt>
      <trkpt lat="59.410932" lon="17.7966805">
        <ele>39.8</ele>
        <time>2012-05-02T19:47:44Z</time>
      </trkpt>
      <trkpt lat="59.4113887" lon="17.7966369">
        <ele>38.6</ele>
        <time>2012-05-02T19:47:48Z</time>
      </trkpt>
      <trkpt lat="59.4118037" lon="17.7966503">
        <ele>37.4</ele>
        <time>2012-05-02T19:47:52Z</time>
      </trkpt>
      <trkpt lat="59.4122153" lon="17.7967383">
        <ele>36.4</ele>
        <time>2012-05-02T19:47:56Z</time>
      </trkpt>
      <trkpt lat="59.4125863" lon="17.7968695">
        <ele>34.8</ele>
        <time>2012-05-02T19:48:00Z</time>
      </trkpt>
      <trkpt lat="59.413021" lon="17.7970586">
        <ele>32.8</ele>
        <time>2012-05-02T19:48:05Z</time>
      </trkpt>
      <trkpt lat="59.4134359" lon="17.7972676">
        <ele>31</ele>
        <time>2012-05-02T19:48:11Z</time>
      </trkpt>
      <trkpt lat="59.4139348" lon="17.7969424">
        <ele>24.2</ele>
        <time>2012-05-02T19:48:44Z</time>
      </trkpt>
      <trkpt lat="59.4140554" lon="17.7962924">
        <ele>26</ele>
        <time>2012-05-02T19:48:48Z</time>
      </trkpt>
      <trkpt lat="59.4142133" lon="17.7954938">
        <ele>27.8</ele>
        <time>2012-05-02T19:48:53Z</time>
      </trkpt>
      <trkpt lat="59.4143508" lon="17.7947341">
        <ele>30.6</ele>
        <time>2012-05-02T19:48:58Z</time>
      </trkpt>
      <trkpt lat="59.4144654" lon="17.7940391">
        <ele>34</ele>
        <time>2012-05-02T19:49:03Z</time>
      </trkpt>
      <trkpt lat="59.4145231" lon="17.7933118">
        <ele>36</ele>
        <time>2012-05-02T19:49:08Z</time>
      </trkpt>
      <trkpt lat="59.4145537" lon="17.79247">
        <ele>39.6</ele>
        <time>2012-05-02T19:49:14Z</time>
      </trkpt>
      <trkpt lat="59.4145733" lon="17.79167">
        <ele>42.8</ele>
        <time>2012-05-02T19:49:20Z</time>
      </trkpt>
      <trkpt lat="59.4145922" lon="17.790898">
        <ele>46.4</ele>
        <time>2012-05-02T19:49:26Z</time>
      </trkpt>
      <trkpt lat="59.4146202" lon="17.7901616">
        <ele>48.2</ele>
        <time>2012-05-02T19:49:32Z</time>
      </trkpt>
      <trkpt lat="59.4146438" lon="17.7894177">
        <ele>51</ele>
        <time>2012-05-02T19:49:38Z</time>
      </trkpt>
      <trkpt lat="59.4146681" lon="17.7886477">
        <ele>52.8</ele>
        <time>2012-05-02T19:49:44Z</time>
      </trkpt>
      <trkpt lat="59.4146982" lon="17.7879328">
        <ele>52.6</ele>
        <time>2012-05-02T19:49:50Z</time>
      </trkpt>
      <trkpt lat="59.4147321" lon="17.787226">
        <ele>53</ele>
        <time>2012-05-02T19:49:56Z</time>
      </trkpt>
      <trkpt lat="59.4147692" lon="17.7865132">
        <ele>51.4</ele>
        <time>2012-05-02T19:50:02Z</time>
      </trkpt>
      <trkpt lat="59.4148095" lon="17.7856968">
        <ele>50.4</ele>
        <time>2012-05-02T19:50:09Z</time>
      </trkpt>
      <trkpt lat="59.4148315" lon="17.7850179">
        <ele>49.8</ele>
        <time>2012-05-02T19:50:15Z</time>
      </trkpt>
      <trkpt lat="59.4148526" lon="17.7849164">
        <ele>49.4</ele>
        <time>2012-05-02T19:50:16Z</time>
      </trkpt>
      <trkpt lat="59.4150989" lon="17.7847538">
        <ele>48.4</ele>
        <time>2012-05-02T19:50:21Z</time>
      </trkpt>
      <trkpt lat="59.415174" lon="17.7847711">
        <ele>49.2</ele>
        <time>2012-05-02T19:50:22Z</time>
      </trkpt>
      <trkpt lat="59.4155796" lon="17.7848419">
        <ele>51</ele>
        <time>2012-05-02T19:50:27Z</time>
      </trkpt>
      <trkpt lat="59.4159742" lon="17.7849091">
        <ele>51.4</ele>
        <time>2012-05-02T19:50:32Z</time>
      </trkpt>
      <trkpt lat="59.4163784" lon="17.7849687">
        <ele>50.8</ele>
        <time>2012-05-02T19:50:37Z</time>
      </trkpt>
      <trkpt lat="59.4167961" lon="17.7849852">
        <ele>48.8</ele>
        <time>2012-05-02T19:50:42Z</time>
      </trkpt>
      <trkpt lat="59.4172248" lon="17.7848558">
        <ele>47.8</ele>
        <time>2012-05-02T19:50:47Z</time>
      </trkpt>
      <trkpt lat="59.4175718" lon="17.784647">
        <ele>45.4</ele>
        <time>2012-05-02T19:50:51Z</time>
      </trkpt>
      <trkpt lat="59.4179302" lon="17.784417">
        <ele>43.2</ele>
        <time>2012-05-02T19:50:55Z</time>
      </trkpt>
      <trkpt lat="59.4183172" lon="17.7843">
        <ele>43</ele>
        <time>2012-05-02T19:50:59Z</time>
      </trkpt>
      <trkpt lat="59.4186962" lon="17.7842724">
        <ele>41.6</ele>
        <time>2012-05-02T19:51:03Z</time>
      </trkpt>
      <trkpt lat="59.4190869" lon="17.7843077">
        <ele>40.8</ele>
        <time>2012-05-02T19:51:07Z</time>
      </trkpt>
      <trkpt lat="59.4193141" lon="17.7843508">
        <ele>40</ele>
        <time>2012-05-02T19:51:10Z</time>
      </trkpt>
      <trkpt lat="59.4194247" lon="17.7846517">
        <ele>39</ele>
        <time>2012-05-02T19:51:13Z</time>
      </trkpt>
      <trkpt lat="59.4194369" lon="17.7849661">
        <ele>38.8</ele>
        <time>2012-05-02T19:51:15Z</time>
      </trkpt>
      <trkpt lat="59.4194501" lon="17.7853288">
        <ele>38.6</ele>
        <time>2012-05-02T19:51:17Z</time>
      </trkpt>
      <trkpt lat="59.419533" lon="17.7861156">
        <ele>38.8</ele>
        <time>2012-05-02T19:51:21Z</time>
      </trkpt>
      <trkpt lat="59.4196888" lon="17.7869111">
        <ele>39</ele>
        <time>2012-05-02T19:51:25Z</time>
      </trkpt>
      <trkpt lat="59.4198397" lon="17.7876674">
        <ele>39.2</ele>
        <time>2012-05-02T19:51:29Z</time>
      </trkpt>
      <trkpt lat="59.4199893" lon="17.7884114">
        <ele>40.2</ele>
        <time>2012-05-02T19:51:33Z</time>
      </trkpt>
      <trkpt lat="59.4201344" lon="17.789134">
        <ele>41.4</ele>
        <time>2012-05-02T19:51:37Z</time>
      </trkpt>
      <trkpt lat="59.4202769" lon="17.7898363">
        <ele>42.2</ele>
        <time>2012-05-02T19:51:41Z</time>
      </trkpt>
      <trkpt lat="59.4204161" lon="17.7905203">
        <ele>42.2</ele>
        <time>2012-05-02T19:51:45Z</time>
      </trkpt>
      <trkpt lat="59.4205568" lon="17.7912273">
        <ele>41.4</ele>
        <time>2012-05-02T19:51:49Z</time>
      </trkpt>
      <trkpt lat="59.4206855" lon="17.7920023">
        <ele>39</ele>
        <time>2012-05-02T19:51:53Z</time>
      </trkpt>
      <trkpt lat="59.420744" lon="17.7928865">
        <ele>36.6</ele>
        <time>2012-05-02T19:51:57Z</time>
      </trkpt>
      <trkpt lat="59.4207715" lon="17.7935843">
        <ele>34.4</ele>
        <time>2012-05-02T19:52:00Z</time>
      </trkpt>
      <trkpt lat="59.4208047" lon="17.7943105">
        <ele>32</ele>
        <time>2012-05-02T19:52:03Z</time>
      </trkpt>
      <trkpt lat="59.4208295" lon="17.7950705">
        <ele>29.6</ele>
        <time>2012-05-02T19:52:06Z</time>
      </trkpt>
      <trkpt lat="59.4208656" lon="17.7958361">
        <ele>26.8</ele>
        <time>2012-05-02T19:52:09Z</time>
      </trkpt>
      <trkpt lat="59.4209096" lon="17.7965668">
        <ele>25.2</ele>
        <time>2012-05-02T19:52:12Z</time>
      </trkpt>
      <trkpt lat="59.4209921" lon="17.7974698">
        <ele>24.4</ele>
        <time>2012-05-02T19:52:16Z</time>
      </trkpt>
      <trkpt lat="59.4211239" lon="17.7982644">
        <ele>25</ele>
        <time>2012-05-02T19:52:20Z</time>
      </trkpt>
      <trkpt lat="59.4212968" lon="17.7990032">
        <ele>25.6</ele>
        <time>2012-05-02T19:52:24Z</time>
      </trkpt>
      <trkpt lat="59.4214663" lon="17.7997269">
        <ele>26.6</ele>
        <time>2012-05-02T19:52:28Z</time>
      </trkpt>
      <trkpt lat="59.421625" lon="17.8004742">
        <ele>27.2</ele>
        <time>2012-05-02T19:52:32Z</time>
      </trkpt>
      <trkpt lat="59.421791" lon="17.8011783">
        <ele>26.8</ele>
        <time>2012-05-02T19:52:36Z</time>
      </trkpt>
      <trkpt lat="59.4219485" lon="17.8018284">
        <ele>26.4</ele>
        <time>2012-05-02T19:52:40Z</time>
      </trkpt>
      <trkpt lat="59.4221323" lon="17.8025405">
        <ele>25.6</ele>
        <time>2012-05-02T19:52:45Z</time>
      </trkpt>
      <trkpt lat="59.422368" lon="17.8032025">
        <ele>24.6</ele>
        <time>2012-05-02T19:52:50Z</time>
      </trkpt>
      <trkpt lat="59.4226976" lon="17.8037355">
        <ele>24</ele>
        <time>2012-05-02T19:52:56Z</time>
      </trkpt>
      <trkpt lat="59.422899" lon="17.8040044">
        <ele>23.8</ele>
        <time>2012-05-02T19:53:00Z</time>
      </trkpt>
      <trkpt lat="59.4229828" lon="17.8042569">
        <ele>24</ele>
        <time>2012-05-02T19:53:03Z</time>
      </trkpt>
      <trkpt lat="59.4229161" lon="17.8047931">
        <ele>22</ele>
        <time>2012-05-02T19:53:08Z</time>
      </trkpt>
      <trkpt lat="59.4229019" lon="17.8049122">
        <ele>21.8</ele>
        <time>2012-05-02T19:53:09Z</time>
      </trkpt>
      <trkpt lat="59.4228806" lon="17.8050254">
        <ele>21.4</ele>
        <time>2012-05-02T19:53:10Z</time>
      </trkpt>
      <trkpt lat="59.4227368" lon="17.8057019">
        <ele>19</ele>
        <time>2012-05-02T19:53:16Z</time>
      </trkpt>
      <trkpt lat="59.4225524" lon="17.8063908">
        <ele>18</ele>
        <time>2012-05-02T19:53:23Z</time>
      </trkpt>
      <trkpt lat="59.4224975" lon="17.8065792">
        <ele>17.4</ele>
        <time>2012-05-02T19:53:25Z</time>
      </trkpt>
      <trkpt lat="59.4225985" lon="17.807044">
        <ele>17.2</ele>
        <time>2012-05-02T19:53:30Z</time>
      </trkpt>
      <trkpt lat="59.4228148" lon="17.8072804">
        <ele>17.6</ele>
        <time>2012-05-02T19:53:34Z</time>
      </trkpt>
      <trkpt lat="59.4229232" lon="17.8073849">
        <ele>18.2</ele>
        <time>2012-05-02T19:53:36Z</time>
      </trkpt>
      <trkpt lat="59.4232681" lon="17.8077407">
        <ele>20.2</ele>
        <time>2012-05-02T19:53:43Z</time>
      </trkpt>
      <trkpt lat="59.4236009" lon="17.8080775">
        <ele>22.4</ele>
        <time>2012-05-02T19:53:50Z</time>
      </trkpt>
      <trkpt lat="59.4239376" lon="17.8084167">
        <ele>23.8</ele>
        <time>2012-05-02T19:53:57Z</time>
      </trkpt>
      <trkpt lat="59.4242616" lon="17.8087506">
        <ele>27</ele>
        <time>2012-05-02T19:54:05Z</time>
      </trkpt>
      <trkpt lat="59.4243454" lon="17.8088351">
        <ele>28</ele>
        <time>2012-05-02T19:54:07Z</time>
      </trkpt>
      <trkpt lat="59.4245918" lon="17.809099">
        <ele>30.2</ele>
        <time>2012-05-02T19:54:13Z</time>
      </trkpt>
      <trkpt lat="59.4249228" lon="17.8095229">
        <ele>33.4</ele>
        <time>2012-05-02T19:54:22Z</time>
      </trkpt>
      <trkpt lat="59.424999" lon="17.8096098">
        <ele>34.4</ele>
        <time>2012-05-02T19:54:24Z</time>
      </trkpt>
      <trkpt lat="59.4252321" lon="17.8099091">
        <ele>37.8</ele>
        <time>2012-05-02T19:54:31Z</time>
      </trkpt>
      <trkpt lat="59.4255539" lon="17.8102899">
        <ele>41.8</ele>
        <time>2012-05-02T19:54:40Z</time>
      </trkpt>
      <trkpt lat="59.4256542" lon="17.810408">
        <ele>42.8</ele>
        <time>2012-05-02T19:54:43Z</time>
      </trkpt>
      <trkpt lat="59.4257114" lon="17.8104909">
        <ele>43</ele>
        <time>2012-05-02T19:54:45Z</time>
      </trkpt>
      <trkpt lat="59.4258909" lon="17.8106639">
        <ele>44</ele>
        <time>2012-05-02T19:54:50Z</time>
      </trkpt>
      <trkpt lat="59.426213" lon="17.8110775">
        <ele>46.6</ele>
        <time>2012-05-02T19:54:59Z</time>
      </trkpt>
      <trkpt lat="59.4265223" lon="17.8114452">
        <ele>47.6</ele>
        <time>2012-05-02T19:55:07Z</time>
      </trkpt>
      <trkpt lat="59.4267328" lon="17.8116841">
        <ele>47.6</ele>
        <time>2012-05-02T19:55:12Z</time>
      </trkpt>
      <trkpt lat="59.4268712" lon="17.8118534">
        <ele>47</ele>
        <time>2012-05-02T19:55:15Z</time>
      </trkpt>
      <trkpt lat="59.4271993" lon="17.8122352">
        <ele>45.2</ele>
        <time>2012-05-02T19:55:21Z</time>
      </trkpt>
      <trkpt lat="59.4273233" lon="17.8123772">
        <ele>44.4</ele>
        <time>2012-05-02T19:55:23Z</time>
      </trkpt>
      <trkpt lat="59.4275077" lon="17.8126191">
        <ele>44</ele>
        <time>2012-05-02T19:55:26Z</time>
      </trkpt>
      <trkpt lat="59.4278211" lon="17.8129898">
        <ele>44.2</ele>
        <time>2012-05-02T19:55:31Z</time>
      </trkpt>
      <trkpt lat="59.4281255" lon="17.8133665">
        <ele>43.8</ele>
        <time>2012-05-02T19:55:36Z</time>
      </trkpt>
      <trkpt lat="59.4284479" lon="17.8137192">
        <ele>42.4</ele>
        <time>2012-05-02T19:55:41Z</time>
      </trkpt>
      <trkpt lat="59.4287886" lon="17.8141348">
        <ele>40.4</ele>
        <time>2012-05-02T19:55:46Z</time>
      </trkpt>
      <trkpt lat="59.4291424" lon="17.8145459">
        <ele>39.4</ele>
        <time>2012-05-02T19:55:51Z</time>
      </trkpt>
      <trkpt lat="59.4294711" lon="17.8149454">
        <ele>38.4</ele>
        <time>2012-05-02T19:55:56Z</time>
      </trkpt>
      <trkpt lat="59.4298135" lon="17.8153355">
        <ele>36.2</ele>
        <time>2012-05-02T19:56:01Z</time>
      </trkpt>
      <trkpt lat="59.4301594" lon="17.8158196">
        <ele>33</ele>
        <time>2012-05-02T19:56:07Z</time>
      </trkpt>
      <trkpt lat="59.4302045" lon="17.815897">
        <ele>32.6</ele>
        <time>2012-05-02T19:56:08Z</time>
      </trkpt>
      <trkpt lat="59.4301406" lon="17.8164701">
        <ele>31.8</ele>
        <time>2012-05-02T19:56:14Z</time>
      </trkpt>
      <trkpt lat="59.4298727" lon="17.8169474">
        <ele>32.6</ele>
        <time>2012-05-02T19:56:20Z</time>
      </trkpt>
      <trkpt lat="59.4295678" lon="17.8173931">
        <ele>34.2</ele>
        <time>2012-05-02T19:56:26Z</time>
      </trkpt>
      <trkpt lat="59.4294673" lon="17.8175302">
        <ele>34.4</ele>
        <time>2012-05-02T19:56:28Z</time>
      </trkpt>
      <trkpt lat="59.4294363" lon="17.8179453">
        <ele>35.6</ele>
        <time>2012-05-02T19:56:32Z</time>
      </trkpt>
      <trkpt lat="59.4294936" lon="17.8181555">
        <ele>36</ele>
        <time>2012-05-02T19:56:34Z</time>
      </trkpt>
      <trkpt lat="59.4295874" lon="17.8186">
        <ele>37.6</ele>
        <time>2012-05-02T19:56:38Z</time>
      </trkpt>
      <trkpt lat="59.4296761" lon="17.8190864">
        <ele>38.4</ele>
        <time>2012-05-02T19:56:42Z</time>
      </trkpt>
      <trkpt lat="59.4297123" lon="17.8193028">
        <ele>38.8</ele>
        <time>2012-05-02T19:56:44Z</time>
      </trkpt>
      <trkpt lat="59.4298533" lon="17.8200445">
        <ele>40</ele>
        <time>2012-05-02T19:56:51Z</time>
      </trkpt>
      <trkpt lat="59.430008" lon="17.820741">
        <ele>43.2</ele>
        <time>2012-05-02T19:56:58Z</time>
      </trkpt>
      <trkpt lat="59.4301471" lon="17.821419">
        <ele>46.6</ele>
        <time>2012-05-02T19:57:05Z</time>
      </trkpt>
      <trkpt lat="59.4301633" lon="17.8215024">
        <ele>47.4</ele>
        <time>2012-05-02T19:57:06Z</time>
      </trkpt>
      <trkpt lat="59.4303115" lon="17.8221064">
        <ele>43.6</ele>
        <time>2012-05-02T19:57:13Z</time>
      </trkpt>
      <trkpt lat="59.4303221" lon="17.8221966">
        <ele>42.8</ele>
        <time>2012-05-02T19:57:14Z</time>
      </trkpt>
      <trkpt lat="59.4301494" lon="17.8227125">
        <ele>41.2</ele>
        <time>2012-05-02T19:57:21Z</time>
      </trkpt>
      <trkpt lat="59.430066" lon="17.8228133">
        <ele>40.8</ele>
        <time>2012-05-02T19:57:23Z</time>
      </trkpt>
      <trkpt lat="59.4299274" lon="17.8230148">
        <ele>39.4</ele>
        <time>2012-05-02T19:57:26Z</time>
      </trkpt>
      <trkpt lat="59.429835" lon="17.8231997">
        <ele>39.6</ele>
        <time>2012-05-02T19:57:28Z</time>
      </trkpt>
      <trkpt lat="59.429563" lon="17.8235024">
        <ele>44.2</ele>
        <time>2012-05-02T19:57:34Z</time>
      </trkpt>
      <trkpt lat="59.4295232" lon="17.8235298">
        <ele>44.8</ele>
        <time>2012-05-02T19:57:35Z</time>
      </trkpt>
      <trkpt lat="59.4294819" lon="17.8235658">
        <ele>45.4</ele>
        <time>2012-05-02T19:57:36Z</time>
      </trkpt>
      <trkpt lat="59.4291114" lon="17.823789">
        <ele>48</ele>
        <time>2012-05-02T19:57:45Z</time>
      </trkpt>
      <trkpt lat="59.4290208" lon="17.8238219">
        <ele>48</ele>
        <time>2012-05-02T19:57:47Z</time>
      </trkpt>
      <trkpt lat="59.428927" lon="17.8238474">
        <ele>47.8</ele>
        <time>2012-05-02T19:57:49Z</time>
      </trkpt>
      <trkpt lat="59.4287686" lon="17.8239189">
        <ele>47.4</ele>
        <time>2012-05-02T19:57:52Z</time>
      </trkpt>
      <trkpt lat="59.4287074" lon="17.8239402">
        <ele>46.6</ele>
        <time>2012-05-02T19:57:53Z</time>
      </trkpt>
      <trkpt lat="59.4284058" lon="17.8240842">
        <ele>43.8</ele>
        <time>2012-05-02T19:57:57Z</time>
      </trkpt>
      <trkpt lat="59.4282003" lon="17.8241684">
        <ele>42</ele>
        <time>2012-05-02T19:58:00Z</time>
      </trkpt>
      <trkpt lat="59.4280436" lon="17.8241914">
        <ele>41.4</ele>
        <time>2012-05-02T19:58:03Z</time>
      </trkpt>
      <trkpt lat="59.4280014" lon="17.8242316">
        <ele>41.2</ele>
        <time>2012-05-02T19:58:04Z</time>
      </trkpt>
      <trkpt lat="59.427954" lon="17.8248031">
        <ele>39.4</ele>
        <time>2012-05-02T19:58:10Z</time>
      </trkpt>
      <trkpt lat="59.427965" lon="17.8249212">
        <ele>39.4</ele>
        <time>2012-05-02T19:58:11Z</time>
      </trkpt>
      <trkpt lat="59.4280009" lon="17.8251642">
        <ele>39</ele>
        <time>2012-05-02T19:58:13Z</time>
      </trkpt>
      <trkpt lat="59.4281407" lon="17.8254933">
        <ele>38.6</ele>
        <time>2012-05-02T19:58:16Z</time>
      </trkpt>
      <trkpt lat="59.4281961" lon="17.8255907">
        <ele>38.4</ele>
        <time>2012-05-02T19:58:17Z</time>
      </trkpt>
      <trkpt lat="59.4284655" lon="17.8260402">
        <ele>34.6</ele>
        <time>2012-05-02T19:58:22Z</time>
      </trkpt>
      <trkpt lat="59.4285107" lon="17.8261474">
        <ele>34.2</ele>
        <time>2012-05-02T19:58:23Z</time>
      </trkpt>
      <trkpt lat="59.4286245" lon="17.8265358">
        <ele>32.2</ele>
        <time>2012-05-02T19:58:26Z</time>
      </trkpt>
      <trkpt lat="59.4286542" lon="17.826703">
        <ele>31</ele>
        <time>2012-05-02T19:58:27Z</time>
      </trkpt>
      <trkpt lat="59.4287628" lon="17.8274225">
        <ele>28</ele>
        <time>2012-05-02T19:58:31Z</time>
      </trkpt>
      <trkpt lat="59.4288302" lon="17.8278113">
        <ele>27.2</ele>
        <time>2012-05-02T19:58:34Z</time>
      </trkpt>
      <trkpt lat="59.4289222" lon="17.8281382">
        <ele>27</ele>
        <time>2012-05-02T19:58:38Z</time>
      </trkpt>
      <trkpt lat="59.4289581" lon="17.828349">
        <ele>26</ele>
        <time>2012-05-02T19:58:40Z</time>
      </trkpt>
      <trkpt lat="59.4290716" lon="17.8288244">
        <ele>26</ele>
        <time>2012-05-02T19:58:44Z</time>
      </trkpt>
      <trkpt lat="59.429137" lon="17.8290765">
        <ele>25.8</ele>
        <time>2012-05-02T19:58:46Z</time>
      </trkpt>
      <trkpt lat="59.4292814" lon="17.8294518">
        <ele>23.6</ele>
        <time>2012-05-02T19:58:49Z</time>
      </trkpt>
      <trkpt lat="59.4294757" lon="17.8300599">
        <ele>23.2</ele>
        <time>2012-05-02T19:58:53Z</time>
      </trkpt>
      <trkpt lat="59.4295807" lon="17.8303661">
        <ele>24.8</ele>
        <time>2012-05-02T19:58:56Z</time>
      </trkpt>
      <trkpt lat="59.4297424" lon="17.8306566">
        <ele>25.6</ele>
        <time>2012-05-02T19:59:00Z</time>
      </trkpt>
      <trkpt lat="59.4298109" lon="17.8308523">
        <ele>25.8</ele>
        <time>2012-05-02T19:59:02Z</time>
      </trkpt>
      <trkpt lat="59.4299458" lon="17.8313497">
        <ele>27.2</ele>
        <time>2012-05-02T19:59:07Z</time>
      </trkpt>
      <trkpt lat="59.4300801" lon="17.8317599">
        <ele>28.6</ele>
        <time>2012-05-02T19:59:12Z</time>
      </trkpt>
      <trkpt lat="59.4302252" lon="17.8317935">
        <ele>28.8</ele>
        <time>2012-05-02T19:59:15Z</time>
      </trkpt>
      <trkpt lat="59.4302814" lon="17.8317761">
        <ele>29</ele>
        <time>2012-05-02T19:59:16Z</time>
      </trkpt>
      <trkpt lat="59.4305986" lon="17.8316022">
        <ele>30</ele>
        <time>2012-05-02T19:59:21Z</time>
      </trkpt>
      <trkpt lat="59.43094" lon="17.8313359">
        <ele>28.8</ele>
        <time>2012-05-02T19:59:26Z</time>
      </trkpt>
      <trkpt lat="59.4312748" lon="17.8309399">
        <ele>28.8</ele>
        <time>2012-05-02T19:59:31Z</time>
      </trkpt>
      <trkpt lat="59.4315912" lon="17.8304799">
        <ele>29</ele>
        <time>2012-05-02T19:59:36Z</time>
      </trkpt>
      <trkpt lat="59.4319073" lon="17.8300589">
        <ele>30</ele>
        <time>2012-05-02T19:59:41Z</time>
      </trkpt>
      <trkpt lat="59.4322411" lon="17.8296574">
        <ele>30.6</ele>
        <time>2012-05-02T19:59:46Z</time>
      </trkpt>
      <trkpt lat="59.4325801" lon="17.829302">
        <ele>30.6</ele>
        <time>2012-05-02T19:59:51Z</time>
      </trkpt>
      <trkpt lat="59.4329645" lon="17.8289493">
        <ele>30.6</ele>
        <time>2012-05-02T19:59:57Z</time>
      </trkpt>
      <trkpt lat="59.4333328" lon="17.8286784">
        <ele>30.6</ele>
        <time>2012-05-02T20:00:03Z</time>
      </trkpt>
      <trkpt lat="59.4335643" lon="17.8285915">
        <ele>31</ele>
        <time>2012-05-02T20:00:07Z</time>
      </trkpt>
      <trkpt lat="59.4336876" lon="17.8285907">
        <ele>31</ele>
        <time>2012-05-02T20:00:09Z</time>
      </trkpt>
      <trkpt lat="59.4340812" lon="17.828523">
        <ele>30.8</ele>
        <time>2012-05-02T20:00:15Z</time>
      </trkpt>
      <trkpt lat="59.4344692" lon="17.8284846">
        <ele>32.4</ele>
        <time>2012-05-02T20:00:21Z</time>
      </trkpt>
      <trkpt lat="59.4348359" lon="17.8284544">
        <ele>34.2</ele>
        <time>2012-05-02T20:00:27Z</time>
      </trkpt>
      <trkpt lat="59.4349458" lon="17.8284788">
        <ele>34.8</ele>
        <time>2012-05-02T20:00:29Z</time>
      </trkpt>
      <trkpt lat="59.4351616" lon="17.8287918">
        <ele>35.2</ele>
        <time>2012-05-02T20:00:34Z</time>
      </trkpt>
      <trkpt lat="59.4354346" lon="17.828739">
        <ele>35</ele>
        <time>2012-05-02T20:00:39Z</time>
      </trkpt>
      <trkpt lat="59.4355496" lon="17.8286634">
        <ele>35</ele>
        <time>2012-05-02T20:00:41Z</time>
      </trkpt>
      <trkpt lat="59.4359186" lon="17.8283085">
        <ele>35.4</ele>
        <time>2012-05-02T20:00:48Z</time>
      </trkpt>
      <trkpt lat="59.4362942" lon="17.8279616">
        <ele>37.2</ele>
        <time>2012-05-02T20:00:54Z</time>
      </trkpt>
      <trkpt lat="59.4366651" lon="17.8276092">
        <ele>38.2</ele>
        <time>2012-05-02T20:01:00Z</time>
      </trkpt>
      <trkpt lat="59.4367292" lon="17.8275693">
        <ele>38.4</ele>
        <time>2012-05-02T20:01:01Z</time>
      </trkpt>
      <trkpt lat="59.4370651" lon="17.827559">
        <ele>38</ele>
        <time>2012-05-02T20:01:06Z</time>
      </trkpt>
      <trkpt lat="59.4371329" lon="17.8275881">
        <ele>37.8</ele>
        <time>2012-05-02T20:01:07Z</time>
      </trkpt>
      <trkpt lat="59.4374649" lon="17.8277479">
        <ele>36.6</ele>
        <time>2012-05-02T20:01:12Z</time>
      </trkpt>
      <trkpt lat="59.4378596" lon="17.8279919">
        <ele>34.8</ele>
        <time>2012-05-02T20:01:18Z</time>
      </trkpt>
      <trkpt lat="59.4379943" lon="17.8280677">
        <ele>34.4</ele>
        <time>2012-05-02T20:01:20Z</time>
      </trkpt>
      <trkpt lat="59.4381299" lon="17.8281065">
        <ele>34.8</ele>
        <time>2012-05-02T20:01:22Z</time>
      </trkpt>
      <trkpt lat="59.4382479" lon="17.8280142">
        <ele>34.8</ele>
        <time>2012-05-02T20:01:24Z</time>
      </trkpt>
      <trkpt lat="59.4383968" lon="17.8274823">
        <ele>35.8</ele>
        <time>2012-05-02T20:01:29Z</time>
      </trkpt>
      <trkpt lat="59.4384169" lon="17.8273684">
        <ele>35.8</ele>
        <time>2012-05-02T20:01:30Z</time>
      </trkpt>
      <trkpt lat="59.4384986" lon="17.8268943">
        <ele>36</ele>
        <time>2012-05-02T20:01:34Z</time>
      </trkpt>
      <trkpt lat="59.438591" lon="17.8267199">
        <ele>36.8</ele>
        <time>2012-05-02T20:01:36Z</time>
      </trkpt>
      <trkpt lat="59.4388851" lon="17.8267359">
        <ele>35.8</ele>
        <time>2012-05-02T20:01:40Z</time>
      </trkpt>
      <trkpt lat="59.4389586" lon="17.8267592">
        <ele>35.8</ele>
        <time>2012-05-02T20:01:41Z</time>
      </trkpt>
      <trkpt lat="59.4393347" lon="17.8268035">
        <ele>35.6</ele>
        <time>2012-05-02T20:01:46Z</time>
      </trkpt>
      <trkpt lat="59.4397106" lon="17.8267601">
        <ele>36.4</ele>
        <time>2012-05-02T20:01:51Z</time>
      </trkpt>
      <trkpt lat="59.4400798" lon="17.8266688">
        <ele>37.6</ele>
        <time>2012-05-02T20:01:56Z</time>
      </trkpt>
      <trkpt lat="59.4404445" lon="17.8264938">
        <ele>36</ele>
        <time>2012-05-02T20:02:01Z</time>
      </trkpt>
      <trkpt lat="59.4408169" lon="17.8262707">
        <ele>35.6</ele>
        <time>2012-05-02T20:02:06Z</time>
      </trkpt>
      <trkpt lat="59.4411778" lon="17.8260157">
        <ele>35.2</ele>
        <time>2012-05-02T20:02:11Z</time>
      </trkpt>
      <trkpt lat="59.441544" lon="17.8257782">
        <ele>35.4</ele>
        <time>2012-05-02T20:02:16Z</time>
      </trkpt>
      <trkpt lat="59.4419085" lon="17.8255719">
        <ele>34.8</ele>
        <time>2012-05-02T20:02:21Z</time>
      </trkpt>
      <trkpt lat="59.4422656" lon="17.8253941">
        <ele>36.4</ele>
        <time>2012-05-02T20:02:26Z</time>
      </trkpt>
      <trkpt lat="59.4426428" lon="17.8252754">
        <ele>37.8</ele>
        <time>2012-05-02T20:02:31Z</time>
      </trkpt>
      <trkpt lat="59.4430128" lon="17.8252285">
        <ele>39</ele>
        <time>2012-05-02T20:02:36Z</time>
      </trkpt>
      <trkpt lat="59.4432251" lon="17.825214">
        <ele>39.2</ele>
        <time>2012-05-02T20:02:39Z</time>
      </trkpt>
      <trkpt lat="59.4433742" lon="17.825184">
        <ele>39.2</ele>
        <time>2012-05-02T20:02:41Z</time>
      </trkpt>
      <trkpt lat="59.4437432" lon="17.8251839">
        <ele>35.8</ele>
        <time>2012-05-02T20:02:46Z</time>
      </trkpt>
      <trkpt lat="59.4441115" lon="17.825234">
        <ele>33</ele>
        <time>2012-05-02T20:02:51Z</time>
      </trkpt>
      <trkpt lat="59.4444943" lon="17.8253061">
        <ele>32.2</ele>
        <time>2012-05-02T20:02:56Z</time>
      </trkpt>
      <trkpt lat="59.4448814" lon="17.8254081">
        <ele>30</ele>
        <time>2012-05-02T20:03:01Z</time>
      </trkpt>
      <trkpt lat="59.4452884" lon="17.8255078">
        <ele>29.6</ele>
        <time>2012-05-02T20:03:06Z</time>
      </trkpt>
      <trkpt lat="59.4457079" lon="17.8255793">
        <ele>30.8</ele>
        <time>2012-05-02T20:03:11Z</time>
      </trkpt>
      <trkpt lat="59.4461243" lon="17.8255858">
        <ele>31.8</ele>
        <time>2012-05-02T20:03:16Z</time>
      </trkpt>
      <trkpt lat="59.4465435" lon="17.8255186">
        <ele>34</ele>
        <time>2012-05-02T20:03:21Z</time>
      </trkpt>
      <trkpt lat="59.4469681" lon="17.8254305">
        <ele>36.8</ele>
        <time>2012-05-02T20:03:26Z</time>
      </trkpt>
      <trkpt lat="59.4470507" lon="17.8254086">
        <ele>37</ele>
        <time>2012-05-02T20:03:27Z</time>
      </trkpt>
      <trkpt lat="59.4473662" lon="17.8252366">
        <ele>37</ele>
        <time>2012-05-02T20:03:31Z</time>
      </trkpt>
      <trkpt lat="59.4477335" lon="17.824956">
        <ele>36.2</ele>
        <time>2012-05-02T20:03:36Z</time>
      </trkpt>
      <trkpt lat="59.4480941" lon="17.8246931">
        <ele>36.4</ele>
        <time>2012-05-02T20:03:41Z</time>
      </trkpt>
      <trkpt lat="59.4484561" lon="17.82444">
        <ele>36.6</ele>
        <time>2012-05-02T20:03:47Z</time>
      </trkpt>
      <trkpt lat="59.4486327" lon="17.8243231">
        <ele>36.8</ele>
        <time>2012-05-02T20:03:53Z</time>
      </trkpt>
      <trkpt lat="59.4487057" lon="17.8239802">
        <ele>37.6</ele>
        <time>2012-05-02T20:03:57Z</time>
      </trkpt>
      <trkpt lat="59.4486998" lon="17.8238519">
        <ele>37.8</ele>
        <time>2012-05-02T20:03:58Z</time>
      </trkpt>
      <trkpt lat="59.4486353" lon="17.8231891">
        <ele>38.6</ele>
        <time>2012-05-02T20:04:03Z</time>
      </trkpt>
      <trkpt lat="59.4486288" lon="17.8230523">
        <ele>39</ele>
        <time>2012-05-02T20:04:04Z</time>
      </trkpt>
      <trkpt lat="59.4486269" lon="17.8224699">
        <ele>40</ele>
        <time>2012-05-02T20:04:08Z</time>
      </trkpt>
      <trkpt lat="59.4486229" lon="17.8217112">
        <ele>41.2</ele>
        <time>2012-05-02T20:04:13Z</time>
      </trkpt>
      <trkpt lat="59.4486445" lon="17.8208684">
        <ele>41</ele>
        <time>2012-05-02T20:04:18Z</time>
      </trkpt>
      <trkpt lat="59.4487024" lon="17.8200049">
        <ele>41.4</ele>
        <time>2012-05-02T20:04:23Z</time>
      </trkpt>
      <trkpt lat="59.4487767" lon="17.8193154">
        <ele>40.8</ele>
        <time>2012-05-02T20:04:27Z</time>
      </trkpt>
      <trkpt lat="59.4488694" lon="17.8186161">
        <ele>40.2</ele>
        <time>2012-05-02T20:04:31Z</time>
      </trkpt>
      <trkpt lat="59.4489699" lon="17.8179074">
        <ele>38.6</ele>
        <time>2012-05-02T20:04:35Z</time>
      </trkpt>
      <trkpt lat="59.4490984" lon="17.817173">
        <ele>36.8</ele>
        <time>2012-05-02T20:04:39Z</time>
      </trkpt>
      <trkpt lat="59.4492703" lon="17.8164259">
        <ele>34.8</ele>
        <time>2012-05-02T20:04:43Z</time>
      </trkpt>
      <trkpt lat="59.4494838" lon="17.8156934">
        <ele>33.8</ele>
        <time>2012-05-02T20:04:47Z</time>
      </trkpt>
      <trkpt lat="59.4496961" lon="17.8149946">
        <ele>33.4</ele>
        <time>2012-05-02T20:04:51Z</time>
      </trkpt>
      <trkpt lat="59.4499231" lon="17.814329">
        <ele>34</ele>
        <time>2012-05-02T20:04:55Z</time>
      </trkpt>
      <trkpt lat="59.4501613" lon="17.8136405">
        <ele>33.4</ele>
        <time>2012-05-02T20:04:59Z</time>
      </trkpt>
      <trkpt lat="59.4504037" lon="17.8129723">
        <ele>32</ele>
        <time>2012-05-02T20:05:03Z</time>
      </trkpt>
      <trkpt lat="59.4506498" lon="17.8123544">
        <ele>31.4</ele>
        <time>2012-05-02T20:05:07Z</time>
      </trkpt>
      <trkpt lat="59.4508885" lon="17.8117378">
        <ele>30.4</ele>
        <time>2012-05-02T20:05:11Z</time>
      </trkpt>
      <trkpt lat="59.4511358" lon="17.8111396">
        <ele>30.4</ele>
        <time>2012-05-02T20:05:15Z</time>
      </trkpt>
      <trkpt lat="59.451406" lon="17.8105551">
        <ele>30.2</ele>
        <time>2012-05-02T20:05:19Z</time>
      </trkpt>
      <trkpt lat="59.4516728" lon="17.8099627">
        <ele>29.2</ele>
        <time>2012-05-02T20:05:23Z</time>
      </trkpt>
      <trkpt lat="59.4519536" lon="17.8094008">
        <ele>28</ele>
        <time>2012-05-02T20:05:27Z</time>
      </trkpt>
      <trkpt lat="59.452243" lon="17.8088723">
        <ele>24.8</ele>
        <time>2012-05-02T20:05:31Z</time>
      </trkpt>
      <trkpt lat="59.4525266" lon="17.8083567">
        <ele>22.8</ele>
        <time>2012-05-02T20:05:35Z</time>
      </trkpt>
      <trkpt lat="59.4527979" lon="17.8078684">
        <ele>22.2</ele>
        <time>2012-05-02T20:05:39Z</time>
      </trkpt>
      <trkpt lat="59.4531254" lon="17.8072709">
        <ele>23.2</ele>
        <time>2012-05-02T20:05:44Z</time>
      </trkpt>
      <trkpt lat="59.4534432" lon="17.8067085">
        <ele>24.6</ele>
        <time>2012-05-02T20:05:49Z</time>
      </trkpt>
      <trkpt lat="59.453777" lon="17.8061512">
        <ele>26.4</ele>
        <time>2012-05-02T20:05:54Z</time>
      </trkpt>
      <trkpt lat="59.4540985" lon="17.8055627">
        <ele>30.8</ele>
        <time>2012-05-02T20:05:59Z</time>
      </trkpt>
      <trkpt lat="59.4543741" lon="17.8050692">
        <ele>31.8</ele>
        <time>2012-05-02T20:06:03Z</time>
      </trkpt>
      <trkpt lat="59.4546524" lon="17.8046158">
        <ele>33.6</ele>
        <time>2012-05-02T20:06:07Z</time>
      </trkpt>
      <trkpt lat="59.4550042" lon="17.8043958">
        <ele>33.6</ele>
        <time>2012-05-02T20:06:11Z</time>
      </trkpt>
      <trkpt lat="59.4551771" lon="17.8043707">
        <ele>33.6</ele>
        <time>2012-05-02T20:06:13Z</time>
      </trkpt>
      <trkpt lat="59.4554179" lon="17.8044899">
        <ele>33.8</ele>
        <time>2012-05-02T20:06:16Z</time>
      </trkpt>
      <trkpt lat="59.4554915" lon="17.8045485">
        <ele>33.6</ele>
        <time>2012-05-02T20:06:17Z</time>
      </trkpt>
      <trkpt lat="59.4557703" lon="17.8047922">
        <ele>33.2</ele>
        <time>2012-05-02T20:06:21Z</time>
      </trkpt>
      <trkpt lat="59.4561255" lon="17.8050731">
        <ele>32</ele>
        <time>2012-05-02T20:06:26Z</time>
      </trkpt>
      <trkpt lat="59.4565005" lon="17.8053493">
        <ele>31.2</ele>
        <time>2012-05-02T20:06:31Z</time>
      </trkpt>
      <trkpt lat="59.4568575" lon="17.8056217">
        <ele>30.4</ele>
        <time>2012-05-02T20:06:36Z</time>
      </trkpt>
      <trkpt lat="59.4571865" lon="17.8053245">
        <ele>29.6</ele>
        <time>2012-05-02T20:06:41Z</time>
      </trkpt>
      <trkpt lat="59.457254" lon="17.8051937">
        <ele>30</ele>
        <time>2012-05-02T20:06:42Z</time>
      </trkpt>
      <trkpt lat="59.4574719" lon="17.8048509">
        <ele>31</ele>
        <time>2012-05-02T20:06:45Z</time>
      </trkpt>
      <trkpt lat="59.4578109" lon="17.8045253">
        <ele>32</ele>
        <time>2012-05-02T20:06:49Z</time>
      </trkpt>
      <trkpt lat="59.4580914" lon="17.8044017">
        <ele>30.4</ele>
        <time>2012-05-02T20:06:52Z</time>
      </trkpt>
      <trkpt lat="59.4581911" lon="17.804405">
        <ele>29.8</ele>
        <time>2012-05-02T20:06:53Z</time>
      </trkpt>
      <trkpt lat="59.458621" lon="17.8044189">
        <ele>31</ele>
        <time>2012-05-02T20:06:57Z</time>
      </trkpt>
      <trkpt lat="59.4588298" lon="17.8043993">
        <ele>31.2</ele>
        <time>2012-05-02T20:06:59Z</time>
      </trkpt>
    </trkseg>
  </trk>
</gpx>